<?xml version="1.0" encoding="UTF-8" standalone="no" ?>
<gpx xmlns="http://www.topografix.com/GPX/1/1" xmlns:xsi="http://www.w3.org/2001/XMLSchema-instance" xsi:schemaLocation="http://www.topografix.com/GPX/1/1 http://www.topografix.com/GPX/1/1/gpx.xsd" version="1.1" creator="VisuGPX - https://www.visugpx.com">
  <metadata>
    <name>64 - PEDESTRE - Lescun - Aval du col des Ourtets depuis le pla de Sanchèse</name>
    <desc><![CDATA[Soleil chaleur nuages reconnaissance]]></desc>
  </metadata>
  <wpt lat="42.93966" lon="-0.69845">
    <ele>1519.958496</ele>
    <name><![CDATA[Cabane-pla-ana]]></name>
    <desc><![CDATA[Cabane-pla-anaye]]></desc>
  </wpt>
  <wpt lat="42.92174" lon="-0.72473">
    <ele>2293.6</ele>
    <name><![CDATA[Col de Lhurs O]]></name>
    <desc><![CDATA[Col de Lhurs Ou de la Table]]></desc>
  </wpt>
  <wpt lat="42.92688" lon="-0.72922">
    <ele>2135.4</ele>
    <name><![CDATA[col-des-ourtet]]></name>
    <desc><![CDATA[col-des-ourtets]]></desc>
  </wpt>
  <wpt lat="42.91939" lon="-0.72748">
    <ele>2438</ele>
    <name><![CDATA[Pic-des-trois-]]></name>
    <desc><![CDATA[Pic-des-trois-rois]]></desc>
  </wpt>
  <wpt lat="42.94075" lon="-0.67692">
    <ele>1081.120361</ele>
    <name><![CDATA[Pla-de-Sanches]]></name>
    <desc><![CDATA[Pla-de-Sanchese]]></desc>
  </wpt>
  <wpt lat="42.94182" lon="-0.67826">
    <ele>1090.6</ele>
    <name><![CDATA[Sanchèse]]></name>
  </wpt>
  <wpt lat="42.93356" lon="-0.71809">
    <ele>1848.006104</ele>
    <name><![CDATA[sourves-de-Mar]]></name>
  </wpt>
  <wpt lat="42.91843" lon="-0.72336">
    <ele>2411.7</ele>
    <name><![CDATA[Table Des Troi]]></name>
    <desc><![CDATA[Table Des Trois Rois]]></desc>
  </wpt>
  <trk>
    <name><![CDATA[ACTIVE LOG 013]]></name>
    <trkseg>
      <trkpt lat="42.94066" lon="-0.67747">
        <ele>1092.675781</ele>
        <time>2012-08-20T07:23:22Z</time>
      </trkpt>
      <trkpt lat="42.94066" lon="-0.67747">
        <ele>1092.675781</ele>
        <time>2012-08-20T07:23:23Z</time>
      </trkpt>
      <trkpt lat="42.94065" lon="-0.67749">
        <ele>1089.311035</ele>
        <time>2012-08-20T07:24:07Z</time>
      </trkpt>
      <trkpt lat="42.94065" lon="-0.67749">
        <ele>1093.15625</ele>
        <time>2012-08-20T07:24:08Z</time>
      </trkpt>
      <trkpt lat="42.94065" lon="-0.6775">
        <ele>1093.15625</ele>
        <time>2012-08-20T07:24:20Z</time>
      </trkpt>
      <trkpt lat="42.94066" lon="-0.67751">
        <ele>1092.195068</ele>
        <time>2012-08-20T07:24:22Z</time>
      </trkpt>
      <trkpt lat="42.94067" lon="-0.6775">
        <ele>1089.311035</ele>
        <time>2012-08-20T07:24:57Z</time>
      </trkpt>
      <trkpt lat="42.94067" lon="-0.6775">
        <ele>1093.636963</ele>
        <time>2012-08-20T07:24:59Z</time>
      </trkpt>
      <trkpt lat="42.94068" lon="-0.6775">
        <ele>1093.15625</ele>
        <time>2012-08-20T07:25:00Z</time>
      </trkpt>
      <trkpt lat="42.94067" lon="-0.6775">
        <ele>1091.714355</ele>
        <time>2012-08-20T07:25:02Z</time>
      </trkpt>
      <trkpt lat="42.94068" lon="-0.6775">
        <ele>1091.714355</ele>
        <time>2012-08-20T07:25:28Z</time>
      </trkpt>
      <trkpt lat="42.9407" lon="-0.6775">
        <ele>1092.195068</ele>
        <time>2012-08-20T07:25:46Z</time>
      </trkpt>
      <trkpt lat="42.94084" lon="-0.67757">
        <ele>1093.15625</ele>
        <time>2012-08-20T07:26:01Z</time>
      </trkpt>
      <trkpt lat="42.94097" lon="-0.67767">
        <ele>1093.15625</ele>
        <time>2012-08-20T07:26:16Z</time>
      </trkpt>
      <trkpt lat="42.94105" lon="-0.67775">
        <ele>1095.078857</ele>
        <time>2012-08-20T07:26:25Z</time>
      </trkpt>
      <trkpt lat="42.94112" lon="-0.67784">
        <ele>1096.040283</ele>
        <time>2012-08-20T07:26:35Z</time>
      </trkpt>
      <trkpt lat="42.94116" lon="-0.67806">
        <ele>1095.55957</ele>
        <time>2012-08-20T07:26:51Z</time>
      </trkpt>
      <trkpt lat="42.9412" lon="-0.67815">
        <ele>1095.55957</ele>
        <time>2012-08-20T07:26:58Z</time>
      </trkpt>
      <trkpt lat="42.94124" lon="-0.67819">
        <ele>1093.636963</ele>
        <time>2012-08-20T07:27:02Z</time>
      </trkpt>
      <trkpt lat="42.94125" lon="-0.6782">
        <ele>1097.001465</ele>
        <time>2012-08-20T07:27:03Z</time>
      </trkpt>
      <trkpt lat="42.94125" lon="-0.67821">
        <ele>1095.078857</ele>
        <time>2012-08-20T07:27:04Z</time>
      </trkpt>
      <trkpt lat="42.94132" lon="-0.67828">
        <ele>1097.482178</ele>
        <time>2012-08-20T07:27:12Z</time>
      </trkpt>
      <trkpt lat="42.94144" lon="-0.67838">
        <ele>1095.55957</ele>
        <time>2012-08-20T07:27:25Z</time>
      </trkpt>
      <trkpt lat="42.94162" lon="-0.6785">
        <ele>1097.962891</ele>
        <time>2012-08-20T07:27:45Z</time>
      </trkpt>
      <trkpt lat="42.94177" lon="-0.67862">
        <ele>1097.482178</ele>
        <time>2012-08-20T07:28:04Z</time>
      </trkpt>
      <trkpt lat="42.9418" lon="-0.67866">
        <ele>1097.962891</ele>
        <time>2012-08-20T07:28:09Z</time>
      </trkpt>
      <trkpt lat="42.94184" lon="-0.67874">
        <ele>1101.80835</ele>
        <time>2012-08-20T07:28:16Z</time>
      </trkpt>
      <trkpt lat="42.94185" lon="-0.67876">
        <ele>1098.924072</ele>
        <time>2012-08-20T07:28:18Z</time>
      </trkpt>
      <trkpt lat="42.94195" lon="-0.67895">
        <ele>1096.520996</ele>
        <time>2012-08-20T07:28:35Z</time>
      </trkpt>
      <trkpt lat="42.94196" lon="-0.67896">
        <ele>1099.885498</ele>
        <time>2012-08-20T07:28:36Z</time>
      </trkpt>
      <trkpt lat="42.94198" lon="-0.67899">
        <ele>1098.924072</ele>
        <time>2012-08-20T07:28:42Z</time>
      </trkpt>
      <trkpt lat="42.9421" lon="-0.67903">
        <ele>1100.366455</ele>
        <time>2012-08-20T07:28:54Z</time>
      </trkpt>
      <trkpt lat="42.94213" lon="-0.67903">
        <ele>1099.885498</ele>
        <time>2012-08-20T07:28:57Z</time>
      </trkpt>
      <trkpt lat="42.94227" lon="-0.67906">
        <ele>1101.327637</ele>
        <time>2012-08-20T07:29:10Z</time>
      </trkpt>
      <trkpt lat="42.94245" lon="-0.6791">
        <ele>1101.80835</ele>
        <time>2012-08-20T07:29:26Z</time>
      </trkpt>
      <trkpt lat="42.94264" lon="-0.67922">
        <ele>1102.769531</ele>
        <time>2012-08-20T07:29:45Z</time>
      </trkpt>
      <trkpt lat="42.94265" lon="-0.67924">
        <ele>1102.769531</ele>
        <time>2012-08-20T07:29:47Z</time>
      </trkpt>
      <trkpt lat="42.94281" lon="-0.67932">
        <ele>1103.250244</ele>
        <time>2012-08-20T07:30:01Z</time>
      </trkpt>
      <trkpt lat="42.94284" lon="-0.67934">
        <ele>1103.730957</ele>
        <time>2012-08-20T07:30:06Z</time>
      </trkpt>
      <trkpt lat="42.94277" lon="-0.67952">
        <ele>1103.250244</ele>
        <time>2012-08-20T07:30:21Z</time>
      </trkpt>
      <trkpt lat="42.94273" lon="-0.67971">
        <ele>1103.250244</ele>
        <time>2012-08-20T07:30:55Z</time>
      </trkpt>
      <trkpt lat="42.94272" lon="-0.67976">
        <ele>1102.288818</ele>
        <time>2012-08-20T07:30:58Z</time>
      </trkpt>
      <trkpt lat="42.9428" lon="-0.67978">
        <ele>1104.21167</ele>
        <time>2012-08-20T07:31:07Z</time>
      </trkpt>
      <trkpt lat="42.94292" lon="-0.67981">
        <ele>1107.576172</ele>
        <time>2012-08-20T07:31:21Z</time>
      </trkpt>
      <trkpt lat="42.943" lon="-0.67982">
        <ele>1110.459961</ele>
        <time>2012-08-20T07:31:32Z</time>
      </trkpt>
      <trkpt lat="42.94304" lon="-0.67985">
        <ele>1112.382568</ele>
        <time>2012-08-20T07:31:44Z</time>
      </trkpt>
      <trkpt lat="42.9431" lon="-0.67989">
        <ele>1115.266602</ele>
        <time>2012-08-20T07:31:58Z</time>
      </trkpt>
      <trkpt lat="42.94317" lon="-0.67993">
        <ele>1116.228027</ele>
        <time>2012-08-20T07:32:14Z</time>
      </trkpt>
      <trkpt lat="42.94322" lon="-0.67995">
        <ele>1116.70874</ele>
        <time>2012-08-20T07:32:30Z</time>
      </trkpt>
      <trkpt lat="42.9433" lon="-0.67996">
        <ele>1119.592773</ele>
        <time>2012-08-20T07:32:43Z</time>
      </trkpt>
      <trkpt lat="42.94333" lon="-0.68003">
        <ele>1121.034668</ele>
        <time>2012-08-20T07:32:59Z</time>
      </trkpt>
      <trkpt lat="42.94338" lon="-0.68009">
        <ele>1123.918457</ele>
        <time>2012-08-20T07:33:12Z</time>
      </trkpt>
      <trkpt lat="42.94329" lon="-0.6802">
        <ele>1127.283203</ele>
        <time>2012-08-20T07:33:30Z</time>
      </trkpt>
      <trkpt lat="42.94325" lon="-0.68023">
        <ele>1129.205566</ele>
        <time>2012-08-20T07:33:41Z</time>
      </trkpt>
      <trkpt lat="42.94323" lon="-0.68031">
        <ele>1130.166992</ele>
        <time>2012-08-20T07:33:55Z</time>
      </trkpt>
      <trkpt lat="42.9433" lon="-0.68032">
        <ele>1133.531738</ele>
        <time>2012-08-20T07:34:09Z</time>
      </trkpt>
      <trkpt lat="42.94335" lon="-0.68043">
        <ele>1136.415771</ele>
        <time>2012-08-20T07:34:29Z</time>
      </trkpt>
      <trkpt lat="42.94338" lon="-0.68049">
        <ele>1138.338379</ele>
        <time>2012-08-20T07:34:40Z</time>
      </trkpt>
      <trkpt lat="42.94342" lon="-0.68058">
        <ele>1141.702881</ele>
        <time>2012-08-20T07:34:56Z</time>
      </trkpt>
      <trkpt lat="42.94338" lon="-0.68061">
        <ele>1143.625488</ele>
        <time>2012-08-20T07:35:12Z</time>
      </trkpt>
      <trkpt lat="42.94332" lon="-0.68061">
        <ele>1145.548096</ele>
        <time>2012-08-20T07:35:25Z</time>
      </trkpt>
      <trkpt lat="42.9433" lon="-0.68061">
        <ele>1146.509521</ele>
        <time>2012-08-20T07:35:27Z</time>
      </trkpt>
      <trkpt lat="42.94323" lon="-0.68063">
        <ele>1147.951416</ele>
        <time>2012-08-20T07:35:42Z</time>
      </trkpt>
      <trkpt lat="42.94318" lon="-0.68065">
        <ele>1150.35498</ele>
        <time>2012-08-20T07:35:57Z</time>
      </trkpt>
      <trkpt lat="42.94314" lon="-0.68064">
        <ele>1151.796875</ele>
        <time>2012-08-20T07:36:06Z</time>
      </trkpt>
      <trkpt lat="42.94309" lon="-0.68067">
        <ele>1154.680664</ele>
        <time>2012-08-20T07:36:19Z</time>
      </trkpt>
      <trkpt lat="42.94302" lon="-0.68066">
        <ele>1157.564697</ele>
        <time>2012-08-20T07:36:33Z</time>
      </trkpt>
      <trkpt lat="42.94296" lon="-0.68059">
        <ele>1159.487305</ele>
        <time>2012-08-20T07:36:49Z</time>
      </trkpt>
      <trkpt lat="42.94294" lon="-0.68063">
        <ele>1160.929199</ele>
        <time>2012-08-20T07:37:06Z</time>
      </trkpt>
      <trkpt lat="42.94295" lon="-0.6807">
        <ele>1164.293945</ele>
        <time>2012-08-20T07:37:18Z</time>
      </trkpt>
      <trkpt lat="42.9429" lon="-0.68072">
        <ele>1167.177979</ele>
        <time>2012-08-20T07:37:39Z</time>
      </trkpt>
      <trkpt lat="42.9429" lon="-0.68058">
        <ele>1170.54248</ele>
        <time>2012-08-20T07:37:59Z</time>
      </trkpt>
      <trkpt lat="42.94279" lon="-0.68055">
        <ele>1172.945801</ele>
        <time>2012-08-20T07:38:20Z</time>
      </trkpt>
      <trkpt lat="42.94281" lon="-0.68063">
        <ele>1174.868408</ele>
        <time>2012-08-20T07:38:29Z</time>
      </trkpt>
      <trkpt lat="42.94276" lon="-0.68067">
        <ele>1177.271729</ele>
        <time>2012-08-20T07:38:48Z</time>
      </trkpt>
      <trkpt lat="42.94272" lon="-0.68057">
        <ele>1179.194092</ele>
        <time>2012-08-20T07:39:03Z</time>
      </trkpt>
      <trkpt lat="42.94266" lon="-0.68047">
        <ele>1181.117188</ele>
        <time>2012-08-20T07:39:20Z</time>
      </trkpt>
      <trkpt lat="42.94264" lon="-0.68047">
        <ele>1181.117188</ele>
        <time>2012-08-20T07:39:25Z</time>
      </trkpt>
      <trkpt lat="42.94258" lon="-0.6805">
        <ele>1181.597656</ele>
        <time>2012-08-20T07:39:34Z</time>
      </trkpt>
      <trkpt lat="42.94251" lon="-0.68047">
        <ele>1182.559082</ele>
        <time>2012-08-20T07:39:45Z</time>
      </trkpt>
      <trkpt lat="42.94242" lon="-0.68058">
        <ele>1184.962402</ele>
        <time>2012-08-20T07:40:01Z</time>
      </trkpt>
      <trkpt lat="42.9424" lon="-0.68064">
        <ele>1187.846191</ele>
        <time>2012-08-20T07:40:08Z</time>
      </trkpt>
      <trkpt lat="42.94236" lon="-0.68076">
        <ele>1187.846191</ele>
        <time>2012-08-20T07:40:21Z</time>
      </trkpt>
      <trkpt lat="42.94236" lon="-0.68076">
        <ele>1188.326904</ele>
        <time>2012-08-20T07:40:41Z</time>
      </trkpt>
      <trkpt lat="42.94243" lon="-0.68072">
        <ele>1190.249512</ele>
        <time>2012-08-20T07:40:53Z</time>
      </trkpt>
      <trkpt lat="42.94243" lon="-0.68066">
        <ele>1190.249512</ele>
        <time>2012-08-20T07:41:41Z</time>
      </trkpt>
      <trkpt lat="42.94239" lon="-0.68085">
        <ele>1189.288086</ele>
        <time>2012-08-20T07:42:03Z</time>
      </trkpt>
      <trkpt lat="42.94239" lon="-0.68067">
        <ele>1190.249512</ele>
        <time>2012-08-20T07:42:49Z</time>
      </trkpt>
      <trkpt lat="42.94244" lon="-0.68074">
        <ele>1191.210693</ele>
        <time>2012-08-20T07:43:18Z</time>
      </trkpt>
      <trkpt lat="42.94251" lon="-0.68077">
        <ele>1194.094727</ele>
        <time>2012-08-20T07:43:33Z</time>
      </trkpt>
      <trkpt lat="42.94253" lon="-0.68085">
        <ele>1196.97876</ele>
        <time>2012-08-20T07:43:45Z</time>
      </trkpt>
      <trkpt lat="42.94258" lon="-0.68092">
        <ele>1198.901367</ele>
        <time>2012-08-20T07:44:02Z</time>
      </trkpt>
      <trkpt lat="42.94256" lon="-0.68099">
        <ele>1201.7854</ele>
        <time>2012-08-20T07:44:19Z</time>
      </trkpt>
      <trkpt lat="42.94255" lon="-0.68107">
        <ele>1203.227295</ele>
        <time>2012-08-20T07:44:32Z</time>
      </trkpt>
      <trkpt lat="42.94261" lon="-0.68113">
        <ele>1206.111084</ele>
        <time>2012-08-20T07:44:46Z</time>
      </trkpt>
      <trkpt lat="42.94265" lon="-0.68124">
        <ele>1208.514404</ele>
        <time>2012-08-20T07:45:01Z</time>
      </trkpt>
      <trkpt lat="42.94265" lon="-0.68131">
        <ele>1210.437012</ele>
        <time>2012-08-20T07:45:16Z</time>
      </trkpt>
      <trkpt lat="42.94262" lon="-0.68133">
        <ele>1212.359863</ele>
        <time>2012-08-20T07:45:23Z</time>
      </trkpt>
      <trkpt lat="42.94253" lon="-0.68131">
        <ele>1213.801758</ele>
        <time>2012-08-20T07:45:42Z</time>
      </trkpt>
      <trkpt lat="42.94245" lon="-0.68136">
        <ele>1217.646973</ele>
        <time>2012-08-20T07:45:59Z</time>
      </trkpt>
      <trkpt lat="42.94242" lon="-0.68145">
        <ele>1220.050293</ele>
        <time>2012-08-20T07:46:16Z</time>
      </trkpt>
      <trkpt lat="42.94239" lon="-0.68152">
        <ele>1221.9729</ele>
        <time>2012-08-20T07:46:29Z</time>
      </trkpt>
      <trkpt lat="42.94243" lon="-0.68155">
        <ele>1222.453613</ele>
        <time>2012-08-20T07:46:44Z</time>
      </trkpt>
      <trkpt lat="42.94245" lon="-0.68156">
        <ele>1224.376221</ele>
        <time>2012-08-20T07:46:57Z</time>
      </trkpt>
      <trkpt lat="42.94251" lon="-0.68154">
        <ele>1226.298828</ele>
        <time>2012-08-20T07:47:13Z</time>
      </trkpt>
      <trkpt lat="42.94248" lon="-0.68163">
        <ele>1229.182861</ele>
        <time>2012-08-20T07:47:31Z</time>
      </trkpt>
      <trkpt lat="42.94247" lon="-0.68165">
        <ele>1230.144287</ele>
        <time>2012-08-20T07:47:35Z</time>
      </trkpt>
      <trkpt lat="42.94245" lon="-0.68166">
        <ele>1231.105713</ele>
        <time>2012-08-20T07:48:00Z</time>
      </trkpt>
      <trkpt lat="42.94244" lon="-0.68171">
        <ele>1233.028076</ele>
        <time>2012-08-20T07:48:33Z</time>
      </trkpt>
      <trkpt lat="42.94244" lon="-0.68172">
        <ele>1233.028076</ele>
        <time>2012-08-20T07:48:34Z</time>
      </trkpt>
      <trkpt lat="42.94248" lon="-0.68174">
        <ele>1236.392822</ele>
        <time>2012-08-20T07:48:44Z</time>
      </trkpt>
      <trkpt lat="42.94254" lon="-0.6817">
        <ele>1239.757324</ele>
        <time>2012-08-20T07:48:55Z</time>
      </trkpt>
      <trkpt lat="42.9426" lon="-0.68167">
        <ele>1241.199219</ele>
        <time>2012-08-20T07:49:09Z</time>
      </trkpt>
      <trkpt lat="42.94266" lon="-0.68167">
        <ele>1243.602539</ele>
        <time>2012-08-20T07:49:29Z</time>
      </trkpt>
      <trkpt lat="42.94262" lon="-0.68171">
        <ele>1246.486816</ele>
        <time>2012-08-20T07:49:43Z</time>
      </trkpt>
      <trkpt lat="42.94259" lon="-0.68179">
        <ele>1249.851318</ele>
        <time>2012-08-20T07:49:59Z</time>
      </trkpt>
      <trkpt lat="42.94257" lon="-0.68189">
        <ele>1252.254395</ele>
        <time>2012-08-20T07:50:15Z</time>
      </trkpt>
      <trkpt lat="42.94254" lon="-0.68194">
        <ele>1253.696533</ele>
        <time>2012-08-20T07:50:31Z</time>
      </trkpt>
      <trkpt lat="42.94255" lon="-0.68204">
        <ele>1256.099609</ele>
        <time>2012-08-20T07:50:46Z</time>
      </trkpt>
      <trkpt lat="42.94255" lon="-0.68216">
        <ele>1257.541748</ele>
        <time>2012-08-20T07:50:59Z</time>
      </trkpt>
      <trkpt lat="42.94258" lon="-0.68229">
        <ele>1258.983643</ele>
        <time>2012-08-20T07:51:12Z</time>
      </trkpt>
      <trkpt lat="42.94261" lon="-0.68243">
        <ele>1261.86792</ele>
        <time>2012-08-20T07:51:27Z</time>
      </trkpt>
      <trkpt lat="42.94266" lon="-0.68253">
        <ele>1263.790283</ele>
        <time>2012-08-20T07:51:43Z</time>
      </trkpt>
      <trkpt lat="42.94266" lon="-0.68261">
        <ele>1267.155029</ele>
        <time>2012-08-20T07:51:57Z</time>
      </trkpt>
      <trkpt lat="42.94266" lon="-0.6827">
        <ele>1269.55835</ele>
        <time>2012-08-20T07:52:11Z</time>
      </trkpt>
      <trkpt lat="42.94268" lon="-0.68277">
        <ele>1271.480713</ele>
        <time>2012-08-20T07:52:26Z</time>
      </trkpt>
      <trkpt lat="42.94266" lon="-0.68284">
        <ele>1272.442139</ele>
        <time>2012-08-20T07:52:39Z</time>
      </trkpt>
      <trkpt lat="42.9427" lon="-0.68291">
        <ele>1274.845459</ele>
        <time>2012-08-20T07:52:55Z</time>
      </trkpt>
      <trkpt lat="42.94272" lon="-0.68298">
        <ele>1277.729492</ele>
        <time>2012-08-20T07:53:11Z</time>
      </trkpt>
      <trkpt lat="42.94274" lon="-0.68309">
        <ele>1280.132812</ele>
        <time>2012-08-20T07:53:27Z</time>
      </trkpt>
      <trkpt lat="42.94275" lon="-0.68322">
        <ele>1282.536133</ele>
        <time>2012-08-20T07:53:43Z</time>
      </trkpt>
      <trkpt lat="42.94276" lon="-0.68332">
        <ele>1284.45874</ele>
        <time>2012-08-20T07:53:57Z</time>
      </trkpt>
      <trkpt lat="42.94273" lon="-0.68341">
        <ele>1286.381348</ele>
        <time>2012-08-20T07:54:10Z</time>
      </trkpt>
      <trkpt lat="42.94278" lon="-0.68353">
        <ele>1288.784668</ele>
        <time>2012-08-20T07:54:28Z</time>
      </trkpt>
      <trkpt lat="42.94284" lon="-0.6835">
        <ele>1291.668457</ele>
        <time>2012-08-20T07:54:46Z</time>
      </trkpt>
      <trkpt lat="42.94285" lon="-0.68355">
        <ele>1294.55249</ele>
        <time>2012-08-20T07:55:01Z</time>
      </trkpt>
      <trkpt lat="42.94285" lon="-0.68362">
        <ele>1294.55249</ele>
        <time>2012-08-20T07:55:26Z</time>
      </trkpt>
      <trkpt lat="42.94287" lon="-0.6837">
        <ele>1296.955811</ele>
        <time>2012-08-20T07:55:55Z</time>
      </trkpt>
      <trkpt lat="42.94291" lon="-0.68377">
        <ele>1299.359131</ele>
        <time>2012-08-20T07:56:12Z</time>
      </trkpt>
      <trkpt lat="42.94291" lon="-0.68383">
        <ele>1302.723633</ele>
        <time>2012-08-20T07:56:23Z</time>
      </trkpt>
      <trkpt lat="42.94291" lon="-0.68384">
        <ele>1302.24292</ele>
        <time>2012-08-20T07:56:24Z</time>
      </trkpt>
      <trkpt lat="42.94293" lon="-0.68395">
        <ele>1305.126953</ele>
        <time>2012-08-20T07:56:43Z</time>
      </trkpt>
      <trkpt lat="42.94292" lon="-0.68405">
        <ele>1308.01123</ele>
        <time>2012-08-20T07:56:59Z</time>
      </trkpt>
      <trkpt lat="42.9429" lon="-0.68415">
        <ele>1311.856445</ele>
        <time>2012-08-20T07:57:13Z</time>
      </trkpt>
      <trkpt lat="42.9429" lon="-0.68426">
        <ele>1312.817627</ele>
        <time>2012-08-20T07:57:28Z</time>
      </trkpt>
      <trkpt lat="42.94285" lon="-0.68439">
        <ele>1315.70166</ele>
        <time>2012-08-20T07:57:47Z</time>
      </trkpt>
      <trkpt lat="42.94293" lon="-0.68449">
        <ele>1317.624023</ele>
        <time>2012-08-20T07:58:03Z</time>
      </trkpt>
      <trkpt lat="42.94296" lon="-0.68461">
        <ele>1319.546875</ele>
        <time>2012-08-20T07:58:17Z</time>
      </trkpt>
      <trkpt lat="42.94299" lon="-0.68468">
        <ele>1320.98877</ele>
        <time>2012-08-20T07:58:27Z</time>
      </trkpt>
      <trkpt lat="42.94305" lon="-0.68483">
        <ele>1322.911377</ele>
        <time>2012-08-20T07:58:42Z</time>
      </trkpt>
      <trkpt lat="42.94308" lon="-0.685">
        <ele>1324.353516</ele>
        <time>2012-08-20T07:58:58Z</time>
      </trkpt>
      <trkpt lat="42.94309" lon="-0.68512">
        <ele>1323.872559</ele>
        <time>2012-08-20T07:59:09Z</time>
      </trkpt>
      <trkpt lat="42.94309" lon="-0.68528">
        <ele>1324.834229</ele>
        <time>2012-08-20T07:59:22Z</time>
      </trkpt>
      <trkpt lat="42.94307" lon="-0.68546">
        <ele>1324.353516</ele>
        <time>2012-08-20T07:59:35Z</time>
      </trkpt>
      <trkpt lat="42.94306" lon="-0.68563">
        <ele>1323.872559</ele>
        <time>2012-08-20T07:59:47Z</time>
      </trkpt>
      <trkpt lat="42.94302" lon="-0.68579">
        <ele>1324.353516</ele>
        <time>2012-08-20T08:00:02Z</time>
      </trkpt>
      <trkpt lat="42.943" lon="-0.68592">
        <ele>1325.314697</ele>
        <time>2012-08-20T08:00:13Z</time>
      </trkpt>
      <trkpt lat="42.94296" lon="-0.68606">
        <ele>1326.276123</ele>
        <time>2012-08-20T08:00:26Z</time>
      </trkpt>
      <trkpt lat="42.94296" lon="-0.68607">
        <ele>1326.756836</ele>
        <time>2012-08-20T08:00:27Z</time>
      </trkpt>
      <trkpt lat="42.94288" lon="-0.68624">
        <ele>1326.756836</ele>
        <time>2012-08-20T08:00:39Z</time>
      </trkpt>
      <trkpt lat="42.94286" lon="-0.68643">
        <ele>1328.679443</ele>
        <time>2012-08-20T08:00:53Z</time>
      </trkpt>
      <trkpt lat="42.94281" lon="-0.6867">
        <ele>1329.640625</ele>
        <time>2012-08-20T08:01:14Z</time>
      </trkpt>
      <trkpt lat="42.94278" lon="-0.6869">
        <ele>1331.563232</ele>
        <time>2012-08-20T08:01:31Z</time>
      </trkpt>
      <trkpt lat="42.94274" lon="-0.68702">
        <ele>1332.524658</ele>
        <time>2012-08-20T08:01:42Z</time>
      </trkpt>
      <trkpt lat="42.94271" lon="-0.68712">
        <ele>1334.447266</ele>
        <time>2012-08-20T08:01:54Z</time>
      </trkpt>
      <trkpt lat="42.94267" lon="-0.68722">
        <ele>1336.850342</ele>
        <time>2012-08-20T08:02:08Z</time>
      </trkpt>
      <trkpt lat="42.94264" lon="-0.68733">
        <ele>1340.215332</ele>
        <time>2012-08-20T08:02:22Z</time>
      </trkpt>
      <trkpt lat="42.94262" lon="-0.68746">
        <ele>1343.099121</ele>
        <time>2012-08-20T08:02:37Z</time>
      </trkpt>
      <trkpt lat="42.94255" lon="-0.68752">
        <ele>1343.579834</ele>
        <time>2012-08-20T08:02:49Z</time>
      </trkpt>
      <trkpt lat="42.9425" lon="-0.68762">
        <ele>1345.021729</ele>
        <time>2012-08-20T08:03:02Z</time>
      </trkpt>
      <trkpt lat="42.94245" lon="-0.68769">
        <ele>1345.502441</ele>
        <time>2012-08-20T08:03:13Z</time>
      </trkpt>
      <trkpt lat="42.94245" lon="-0.68781">
        <ele>1348.38623</ele>
        <time>2012-08-20T08:03:29Z</time>
      </trkpt>
      <trkpt lat="42.94242" lon="-0.68794">
        <ele>1350.309082</ele>
        <time>2012-08-20T08:03:43Z</time>
      </trkpt>
      <trkpt lat="42.94237" lon="-0.6881">
        <ele>1351.750977</ele>
        <time>2012-08-20T08:04:01Z</time>
      </trkpt>
      <trkpt lat="42.94232" lon="-0.68821">
        <ele>1355.115479</ele>
        <time>2012-08-20T08:04:15Z</time>
      </trkpt>
      <trkpt lat="42.94232" lon="-0.6884">
        <ele>1357.999756</ele>
        <time>2012-08-20T08:04:32Z</time>
      </trkpt>
      <trkpt lat="42.94232" lon="-0.6886">
        <ele>1358.960938</ele>
        <time>2012-08-20T08:04:50Z</time>
      </trkpt>
      <trkpt lat="42.94232" lon="-0.68874">
        <ele>1361.844971</ele>
        <time>2012-08-20T08:05:03Z</time>
      </trkpt>
      <trkpt lat="42.94234" lon="-0.68899">
        <ele>1363.767334</ele>
        <time>2012-08-20T08:05:23Z</time>
      </trkpt>
      <trkpt lat="42.94232" lon="-0.68908">
        <ele>1364.248047</ele>
        <time>2012-08-20T08:05:34Z</time>
      </trkpt>
      <trkpt lat="42.94222" lon="-0.68929">
        <ele>1366.170654</ele>
        <time>2012-08-20T08:05:54Z</time>
      </trkpt>
      <trkpt lat="42.94217" lon="-0.68949">
        <ele>1368.093262</ele>
        <time>2012-08-20T08:06:12Z</time>
      </trkpt>
      <trkpt lat="42.94213" lon="-0.68971">
        <ele>1370.015869</ele>
        <time>2012-08-20T08:06:30Z</time>
      </trkpt>
      <trkpt lat="42.94207" lon="-0.68993">
        <ele>1371.938477</ele>
        <time>2012-08-20T08:06:51Z</time>
      </trkpt>
      <trkpt lat="42.94204" lon="-0.69007">
        <ele>1374.342041</ele>
        <time>2012-08-20T08:07:03Z</time>
      </trkpt>
      <trkpt lat="42.94196" lon="-0.69021">
        <ele>1376.745361</ele>
        <time>2012-08-20T08:07:21Z</time>
      </trkpt>
      <trkpt lat="42.94191" lon="-0.69033">
        <ele>1377.706543</ele>
        <time>2012-08-20T08:07:35Z</time>
      </trkpt>
      <trkpt lat="42.94186" lon="-0.69049">
        <ele>1380.590576</ele>
        <time>2012-08-20T08:07:52Z</time>
      </trkpt>
      <trkpt lat="42.94184" lon="-0.69073">
        <ele>1383.955078</ele>
        <time>2012-08-20T08:08:14Z</time>
      </trkpt>
      <trkpt lat="42.94184" lon="-0.69084">
        <ele>1385.396973</ele>
        <time>2012-08-20T08:08:24Z</time>
      </trkpt>
      <trkpt lat="42.94181" lon="-0.69089">
        <ele>1386.358398</ele>
        <time>2012-08-20T08:08:35Z</time>
      </trkpt>
      <trkpt lat="42.94178" lon="-0.69098">
        <ele>1387.800293</ele>
        <time>2012-08-20T08:08:44Z</time>
      </trkpt>
      <trkpt lat="42.94172" lon="-0.69117">
        <ele>1388.28125</ele>
        <time>2012-08-20T08:08:58Z</time>
      </trkpt>
      <trkpt lat="42.94171" lon="-0.69128">
        <ele>1390.203857</ele>
        <time>2012-08-20T08:09:09Z</time>
      </trkpt>
      <trkpt lat="42.94165" lon="-0.69147">
        <ele>1393.087646</ele>
        <time>2012-08-20T08:09:30Z</time>
      </trkpt>
      <trkpt lat="42.94159" lon="-0.69149">
        <ele>1394.529541</ele>
        <time>2012-08-20T08:09:44Z</time>
      </trkpt>
      <trkpt lat="42.94152" lon="-0.69157">
        <ele>1395.490967</ele>
        <time>2012-08-20T08:09:55Z</time>
      </trkpt>
      <trkpt lat="42.94148" lon="-0.69166">
        <ele>1396.452393</ele>
        <time>2012-08-20T08:10:06Z</time>
      </trkpt>
      <trkpt lat="42.94148" lon="-0.69168">
        <ele>1397.894287</ele>
        <time>2012-08-20T08:10:09Z</time>
      </trkpt>
      <trkpt lat="42.94143" lon="-0.69173">
        <ele>1401.739502</ele>
        <time>2012-08-20T08:10:26Z</time>
      </trkpt>
      <trkpt lat="42.94136" lon="-0.69175">
        <ele>1402.700684</ele>
        <time>2012-08-20T08:10:38Z</time>
      </trkpt>
      <trkpt lat="42.94129" lon="-0.69186">
        <ele>1404.623535</ele>
        <time>2012-08-20T08:10:56Z</time>
      </trkpt>
      <trkpt lat="42.94121" lon="-0.69199">
        <ele>1407.026855</ele>
        <time>2012-08-20T08:11:15Z</time>
      </trkpt>
      <trkpt lat="42.94111" lon="-0.69209">
        <ele>1409.430176</ele>
        <time>2012-08-20T08:11:34Z</time>
      </trkpt>
      <trkpt lat="42.94101" lon="-0.69208">
        <ele>1410.87207</ele>
        <time>2012-08-20T08:11:49Z</time>
      </trkpt>
      <trkpt lat="42.94086" lon="-0.69215">
        <ele>1413.275391</ele>
        <time>2012-08-20T08:12:12Z</time>
      </trkpt>
      <trkpt lat="42.94077" lon="-0.69227">
        <ele>1416.15918</ele>
        <time>2012-08-20T08:12:31Z</time>
      </trkpt>
      <trkpt lat="42.94071" lon="-0.69233">
        <ele>1419.043213</ele>
        <time>2012-08-20T08:12:45Z</time>
      </trkpt>
      <trkpt lat="42.94069" lon="-0.69235">
        <ele>1419.043213</ele>
        <time>2012-08-20T08:12:50Z</time>
      </trkpt>
      <trkpt lat="42.94066" lon="-0.69244">
        <ele>1421.446533</ele>
        <time>2012-08-20T08:13:04Z</time>
      </trkpt>
      <trkpt lat="42.94059" lon="-0.69249">
        <ele>1424.811279</ele>
        <time>2012-08-20T08:13:21Z</time>
      </trkpt>
      <trkpt lat="42.94054" lon="-0.69253">
        <ele>1425.772461</ele>
        <time>2012-08-20T08:13:34Z</time>
      </trkpt>
      <trkpt lat="42.94048" lon="-0.69257">
        <ele>1427.695068</ele>
        <time>2012-08-20T08:13:45Z</time>
      </trkpt>
      <trkpt lat="42.94046" lon="-0.69262">
        <ele>1429.617676</ele>
        <time>2012-08-20T08:13:57Z</time>
      </trkpt>
      <trkpt lat="42.94052" lon="-0.69265">
        <ele>1432.020996</ele>
        <time>2012-08-20T08:14:09Z</time>
      </trkpt>
      <trkpt lat="42.94049" lon="-0.69268">
        <ele>1434.424316</ele>
        <time>2012-08-20T08:14:23Z</time>
      </trkpt>
      <trkpt lat="42.94045" lon="-0.6927">
        <ele>1435.385498</ele>
        <time>2012-08-20T08:14:29Z</time>
      </trkpt>
      <trkpt lat="42.94038" lon="-0.69281">
        <ele>1436.347168</ele>
        <time>2012-08-20T08:14:46Z</time>
      </trkpt>
      <trkpt lat="42.94035" lon="-0.69288">
        <ele>1437.30835</ele>
        <time>2012-08-20T08:14:59Z</time>
      </trkpt>
      <trkpt lat="42.94032" lon="-0.69297">
        <ele>1439.71167</ele>
        <time>2012-08-20T08:15:19Z</time>
      </trkpt>
      <trkpt lat="42.94033" lon="-0.69301">
        <ele>1442.595703</ele>
        <time>2012-08-20T08:15:34Z</time>
      </trkpt>
      <trkpt lat="42.94031" lon="-0.69306">
        <ele>1442.11499</ele>
        <time>2012-08-20T08:16:42Z</time>
      </trkpt>
      <trkpt lat="42.94031" lon="-0.69306">
        <ele>1441.634277</ele>
        <time>2012-08-20T08:17:26Z</time>
      </trkpt>
      <trkpt lat="42.94033" lon="-0.69311">
        <ele>1443.556885</ele>
        <time>2012-08-20T08:17:49Z</time>
      </trkpt>
      <trkpt lat="42.94031" lon="-0.69318">
        <ele>1446.440918</ele>
        <time>2012-08-20T08:18:06Z</time>
      </trkpt>
      <trkpt lat="42.9403" lon="-0.69324">
        <ele>1447.882812</ele>
        <time>2012-08-20T08:18:20Z</time>
      </trkpt>
      <trkpt lat="42.9403" lon="-0.6933">
        <ele>1448.843994</ele>
        <time>2012-08-20T08:18:30Z</time>
      </trkpt>
      <trkpt lat="42.94031" lon="-0.69337">
        <ele>1451.247314</ele>
        <time>2012-08-20T08:18:43Z</time>
      </trkpt>
      <trkpt lat="42.94032" lon="-0.69344">
        <ele>1451.728027</ele>
        <time>2012-08-20T08:18:57Z</time>
      </trkpt>
      <trkpt lat="42.9403" lon="-0.69351">
        <ele>1454.612061</ele>
        <time>2012-08-20T08:19:11Z</time>
      </trkpt>
      <trkpt lat="42.94029" lon="-0.69362">
        <ele>1457.015381</ele>
        <time>2012-08-20T08:19:29Z</time>
      </trkpt>
      <trkpt lat="42.94027" lon="-0.69376">
        <ele>1460.379883</ele>
        <time>2012-08-20T08:19:48Z</time>
      </trkpt>
      <trkpt lat="42.94026" lon="-0.69381">
        <ele>1460.379883</ele>
        <time>2012-08-20T08:19:55Z</time>
      </trkpt>
      <trkpt lat="42.94028" lon="-0.69387">
        <ele>1461.822021</ele>
        <time>2012-08-20T08:20:06Z</time>
      </trkpt>
      <trkpt lat="42.94027" lon="-0.69399">
        <ele>1462.30249</ele>
        <time>2012-08-20T08:20:24Z</time>
      </trkpt>
      <trkpt lat="42.94027" lon="-0.69404">
        <ele>1465.186523</ele>
        <time>2012-08-20T08:20:32Z</time>
      </trkpt>
      <trkpt lat="42.94026" lon="-0.69414">
        <ele>1467.5896</ele>
        <time>2012-08-20T08:20:48Z</time>
      </trkpt>
      <trkpt lat="42.94023" lon="-0.69422">
        <ele>1467.5896</ele>
        <time>2012-08-20T08:21:03Z</time>
      </trkpt>
      <trkpt lat="42.94023" lon="-0.69435">
        <ele>1468.070557</ele>
        <time>2012-08-20T08:21:19Z</time>
      </trkpt>
      <trkpt lat="42.94024" lon="-0.69448">
        <ele>1469.993164</ele>
        <time>2012-08-20T08:21:34Z</time>
      </trkpt>
      <trkpt lat="42.94024" lon="-0.69454">
        <ele>1470.473877</ele>
        <time>2012-08-20T08:21:52Z</time>
      </trkpt>
      <trkpt lat="42.9403" lon="-0.69476">
        <ele>1470.95459</ele>
        <time>2012-08-20T08:22:12Z</time>
      </trkpt>
      <trkpt lat="42.94042" lon="-0.6949">
        <ele>1472.396484</ele>
        <time>2012-08-20T08:22:32Z</time>
      </trkpt>
      <trkpt lat="42.94045" lon="-0.69504">
        <ele>1472.877197</ele>
        <time>2012-08-20T08:22:48Z</time>
      </trkpt>
      <trkpt lat="42.94048" lon="-0.69526">
        <ele>1473.838379</ele>
        <time>2012-08-20T08:23:06Z</time>
      </trkpt>
      <trkpt lat="42.94051" lon="-0.69549">
        <ele>1476.241699</ele>
        <time>2012-08-20T08:23:25Z</time>
      </trkpt>
      <trkpt lat="42.94047" lon="-0.69574">
        <ele>1476.722412</ele>
        <time>2012-08-20T08:23:46Z</time>
      </trkpt>
      <trkpt lat="42.94048" lon="-0.69589">
        <ele>1480.086914</ele>
        <time>2012-08-20T08:24:03Z</time>
      </trkpt>
      <trkpt lat="42.94048" lon="-0.696">
        <ele>1482.009521</ele>
        <time>2012-08-20T08:24:17Z</time>
      </trkpt>
      <trkpt lat="42.94048" lon="-0.69614">
        <ele>1484.893799</ele>
        <time>2012-08-20T08:24:33Z</time>
      </trkpt>
      <trkpt lat="42.94045" lon="-0.69622">
        <ele>1485.85498</ele>
        <time>2012-08-20T08:24:45Z</time>
      </trkpt>
      <trkpt lat="42.94041" lon="-0.69632">
        <ele>1487.777588</ele>
        <time>2012-08-20T08:25:02Z</time>
      </trkpt>
      <trkpt lat="42.94042" lon="-0.69644">
        <ele>1490.180908</ele>
        <time>2012-08-20T08:25:19Z</time>
      </trkpt>
      <trkpt lat="42.9404" lon="-0.69651">
        <ele>1491.622803</ele>
        <time>2012-08-20T08:25:35Z</time>
      </trkpt>
      <trkpt lat="42.94037" lon="-0.69668">
        <ele>1493.064697</ele>
        <time>2012-08-20T08:25:54Z</time>
      </trkpt>
      <trkpt lat="42.9403" lon="-0.69685">
        <ele>1494.506592</ele>
        <time>2012-08-20T08:26:13Z</time>
      </trkpt>
      <trkpt lat="42.94027" lon="-0.69699">
        <ele>1495.94873</ele>
        <time>2012-08-20T08:26:27Z</time>
      </trkpt>
      <trkpt lat="42.94024" lon="-0.69714">
        <ele>1496.909912</ele>
        <time>2012-08-20T08:26:41Z</time>
      </trkpt>
      <trkpt lat="42.94014" lon="-0.6973">
        <ele>1498.351807</ele>
        <time>2012-08-20T08:26:59Z</time>
      </trkpt>
      <trkpt lat="42.94003" lon="-0.69747">
        <ele>1498.83252</ele>
        <time>2012-08-20T08:27:18Z</time>
      </trkpt>
      <trkpt lat="42.94002" lon="-0.69753">
        <ele>1499.793945</ele>
        <time>2012-08-20T08:27:25Z</time>
      </trkpt>
      <trkpt lat="42.93992" lon="-0.69775">
        <ele>1499.313232</ele>
        <time>2012-08-20T08:27:45Z</time>
      </trkpt>
      <trkpt lat="42.93985" lon="-0.69795">
        <ele>1500.274902</ele>
        <time>2012-08-20T08:28:02Z</time>
      </trkpt>
      <trkpt lat="42.93985" lon="-0.69813">
        <ele>1500.274902</ele>
        <time>2012-08-20T08:28:17Z</time>
      </trkpt>
      <trkpt lat="42.93976" lon="-0.69835">
        <ele>1501.236084</ele>
        <time>2012-08-20T08:28:35Z</time>
      </trkpt>
      <trkpt lat="42.9397" lon="-0.69835">
        <ele>1501.236084</ele>
        <time>2012-08-20T08:28:42Z</time>
      </trkpt>
      <trkpt lat="42.93968" lon="-0.69834">
        <ele>1501.716797</ele>
        <time>2012-08-20T08:28:44Z</time>
      </trkpt>
      <trkpt lat="42.93964" lon="-0.69842">
        <ele>1501.716797</ele>
        <time>2012-08-20T08:28:51Z</time>
      </trkpt>
      <trkpt lat="42.93956" lon="-0.69863">
        <ele>1502.197266</ele>
        <time>2012-08-20T08:29:11Z</time>
      </trkpt>
      <trkpt lat="42.93954" lon="-0.69881">
        <ele>1503.639404</ele>
        <time>2012-08-20T08:29:27Z</time>
      </trkpt>
      <trkpt lat="42.93951" lon="-0.69898">
        <ele>1505.562012</ele>
        <time>2012-08-20T08:29:41Z</time>
      </trkpt>
      <trkpt lat="42.93947" lon="-0.69919">
        <ele>1507.484619</ele>
        <time>2012-08-20T08:30:00Z</time>
      </trkpt>
      <trkpt lat="42.93945" lon="-0.69928">
        <ele>1507.965332</ele>
        <time>2012-08-20T08:30:08Z</time>
      </trkpt>
      <trkpt lat="42.93941" lon="-0.6994">
        <ele>1508.445801</ele>
        <time>2012-08-20T08:30:23Z</time>
      </trkpt>
      <trkpt lat="42.93931" lon="-0.69952">
        <ele>1510.368408</ele>
        <time>2012-08-20T08:30:40Z</time>
      </trkpt>
      <trkpt lat="42.93922" lon="-0.69965">
        <ele>1512.771729</ele>
        <time>2012-08-20T08:30:58Z</time>
      </trkpt>
      <trkpt lat="42.93914" lon="-0.69984">
        <ele>1515.655762</ele>
        <time>2012-08-20T08:31:20Z</time>
      </trkpt>
      <trkpt lat="42.93907" lon="-0.70002">
        <ele>1518.059082</ele>
        <time>2012-08-20T08:31:40Z</time>
      </trkpt>
      <trkpt lat="42.93904" lon="-0.70019">
        <ele>1520.462402</ele>
        <time>2012-08-20T08:32:00Z</time>
      </trkpt>
      <trkpt lat="42.93903" lon="-0.70029">
        <ele>1522.865723</ele>
        <time>2012-08-20T08:32:16Z</time>
      </trkpt>
      <trkpt lat="42.93903" lon="-0.7004">
        <ele>1525.268799</ele>
        <time>2012-08-20T08:32:30Z</time>
      </trkpt>
      <trkpt lat="42.939" lon="-0.70044">
        <ele>1526.230225</ele>
        <time>2012-08-20T08:32:48Z</time>
      </trkpt>
      <trkpt lat="42.93894" lon="-0.70058">
        <ele>1527.672119</ele>
        <time>2012-08-20T08:33:04Z</time>
      </trkpt>
      <trkpt lat="42.9389" lon="-0.70065">
        <ele>1528.152832</ele>
        <time>2012-08-20T08:33:13Z</time>
      </trkpt>
      <trkpt lat="42.93885" lon="-0.70072">
        <ele>1529.594727</ele>
        <time>2012-08-20T08:33:23Z</time>
      </trkpt>
      <trkpt lat="42.93876" lon="-0.70086">
        <ele>1531.517334</ele>
        <time>2012-08-20T08:33:41Z</time>
      </trkpt>
      <trkpt lat="42.93866" lon="-0.70093">
        <ele>1533.920898</ele>
        <time>2012-08-20T08:33:58Z</time>
      </trkpt>
      <trkpt lat="42.93858" lon="-0.70102">
        <ele>1537.2854</ele>
        <time>2012-08-20T08:34:13Z</time>
      </trkpt>
      <trkpt lat="42.93849" lon="-0.70119">
        <ele>1538.727539</ele>
        <time>2012-08-20T08:34:33Z</time>
      </trkpt>
      <trkpt lat="42.93841" lon="-0.70136">
        <ele>1539.688721</ele>
        <time>2012-08-20T08:34:52Z</time>
      </trkpt>
      <trkpt lat="42.93836" lon="-0.70149">
        <ele>1542.572754</ele>
        <time>2012-08-20T08:35:04Z</time>
      </trkpt>
      <trkpt lat="42.93839" lon="-0.70161">
        <ele>1544.495117</ele>
        <time>2012-08-20T08:35:16Z</time>
      </trkpt>
      <trkpt lat="42.93843" lon="-0.70177">
        <ele>1546.417969</ele>
        <time>2012-08-20T08:35:34Z</time>
      </trkpt>
      <trkpt lat="42.93844" lon="-0.70187">
        <ele>1548.821289</ele>
        <time>2012-08-20T08:35:49Z</time>
      </trkpt>
      <trkpt lat="42.93847" lon="-0.70195">
        <ele>1550.743896</ele>
        <time>2012-08-20T08:36:04Z</time>
      </trkpt>
      <trkpt lat="42.9385" lon="-0.70204">
        <ele>1554.108643</ele>
        <time>2012-08-20T08:36:17Z</time>
      </trkpt>
      <trkpt lat="42.93851" lon="-0.7022">
        <ele>1556.031006</ele>
        <time>2012-08-20T08:36:37Z</time>
      </trkpt>
      <trkpt lat="42.93847" lon="-0.70231">
        <ele>1558.434326</ele>
        <time>2012-08-20T08:36:53Z</time>
      </trkpt>
      <trkpt lat="42.93842" lon="-0.70244">
        <ele>1559.395752</ele>
        <time>2012-08-20T08:37:10Z</time>
      </trkpt>
      <trkpt lat="42.9383" lon="-0.70259">
        <ele>1562.760254</ele>
        <time>2012-08-20T08:37:33Z</time>
      </trkpt>
      <trkpt lat="42.93822" lon="-0.70269">
        <ele>1564.683105</ele>
        <time>2012-08-20T08:37:50Z</time>
      </trkpt>
      <trkpt lat="42.93816" lon="-0.70276">
        <ele>1567.566895</ele>
        <time>2012-08-20T08:38:04Z</time>
      </trkpt>
      <trkpt lat="42.93809" lon="-0.70284">
        <ele>1570.931641</ele>
        <time>2012-08-20T08:38:22Z</time>
      </trkpt>
      <trkpt lat="42.938" lon="-0.70291">
        <ele>1572.854248</ele>
        <time>2012-08-20T08:38:41Z</time>
      </trkpt>
      <trkpt lat="42.93794" lon="-0.70303">
        <ele>1575.257324</ele>
        <time>2012-08-20T08:38:59Z</time>
      </trkpt>
      <trkpt lat="42.93795" lon="-0.70313">
        <ele>1577.180176</ele>
        <time>2012-08-20T08:39:13Z</time>
      </trkpt>
      <trkpt lat="42.93796" lon="-0.70325">
        <ele>1579.102539</ele>
        <time>2012-08-20T08:39:31Z</time>
      </trkpt>
      <trkpt lat="42.93799" lon="-0.7034">
        <ele>1581.025635</ele>
        <time>2012-08-20T08:39:50Z</time>
      </trkpt>
      <trkpt lat="42.93797" lon="-0.70351">
        <ele>1584.87085</ele>
        <time>2012-08-20T08:40:07Z</time>
      </trkpt>
      <trkpt lat="42.93793" lon="-0.70362">
        <ele>1587.754639</ele>
        <time>2012-08-20T08:40:24Z</time>
      </trkpt>
      <trkpt lat="42.93792" lon="-0.7037">
        <ele>1591.119141</ele>
        <time>2012-08-20T08:40:40Z</time>
      </trkpt>
      <trkpt lat="42.93789" lon="-0.70372">
        <ele>1592.561279</ele>
        <time>2012-08-20T08:41:11Z</time>
      </trkpt>
      <trkpt lat="42.93788" lon="-0.70374">
        <ele>1592.561279</ele>
        <time>2012-08-20T08:42:49Z</time>
      </trkpt>
      <trkpt lat="42.93787" lon="-0.70375">
        <ele>1593.522461</ele>
        <time>2012-08-20T08:43:49Z</time>
      </trkpt>
      <trkpt lat="42.93788" lon="-0.7038">
        <ele>1595.445068</ele>
        <time>2012-08-20T08:44:31Z</time>
      </trkpt>
      <trkpt lat="42.93788" lon="-0.70391">
        <ele>1598.329102</ele>
        <time>2012-08-20T08:44:48Z</time>
      </trkpt>
      <trkpt lat="42.93785" lon="-0.70408">
        <ele>1600.251953</ele>
        <time>2012-08-20T08:45:10Z</time>
      </trkpt>
      <trkpt lat="42.93782" lon="-0.70413">
        <ele>1603.135742</ele>
        <time>2012-08-20T08:45:23Z</time>
      </trkpt>
      <trkpt lat="42.93778" lon="-0.70416">
        <ele>1606.500244</ele>
        <time>2012-08-20T08:45:34Z</time>
      </trkpt>
      <trkpt lat="42.93776" lon="-0.70425">
        <ele>1608.903564</ele>
        <time>2012-08-20T08:45:49Z</time>
      </trkpt>
      <trkpt lat="42.93768" lon="-0.70433">
        <ele>1612.268311</ele>
        <time>2012-08-20T08:46:08Z</time>
      </trkpt>
      <trkpt lat="42.93767" lon="-0.70436">
        <ele>1612.749023</ele>
        <time>2012-08-20T08:46:12Z</time>
      </trkpt>
      <trkpt lat="42.93764" lon="-0.70455">
        <ele>1614.190918</ele>
        <time>2012-08-20T08:46:33Z</time>
      </trkpt>
      <trkpt lat="42.93758" lon="-0.70475">
        <ele>1615.633057</ele>
        <time>2012-08-20T08:46:53Z</time>
      </trkpt>
      <trkpt lat="42.93754" lon="-0.70488">
        <ele>1618.516846</ele>
        <time>2012-08-20T08:47:08Z</time>
      </trkpt>
      <trkpt lat="42.93747" lon="-0.70504">
        <ele>1620.920166</ele>
        <time>2012-08-20T08:47:29Z</time>
      </trkpt>
      <trkpt lat="42.93745" lon="-0.70513">
        <ele>1624.765381</ele>
        <time>2012-08-20T08:47:43Z</time>
      </trkpt>
      <trkpt lat="42.93744" lon="-0.70514">
        <ele>1624.765381</ele>
        <time>2012-08-20T08:47:44Z</time>
      </trkpt>
      <trkpt lat="42.93742" lon="-0.70523">
        <ele>1626.687988</ele>
        <time>2012-08-20T08:48:00Z</time>
      </trkpt>
      <trkpt lat="42.93742" lon="-0.70531">
        <ele>1628.61084</ele>
        <time>2012-08-20T08:48:13Z</time>
      </trkpt>
      <trkpt lat="42.93742" lon="-0.7054">
        <ele>1631.975342</ele>
        <time>2012-08-20T08:48:27Z</time>
      </trkpt>
      <trkpt lat="42.93742" lon="-0.7054">
        <ele>1631.975342</ele>
        <time>2012-08-20T08:48:28Z</time>
      </trkpt>
      <trkpt lat="42.93737" lon="-0.70546">
        <ele>1632.936523</ele>
        <time>2012-08-20T08:48:43Z</time>
      </trkpt>
      <trkpt lat="42.93732" lon="-0.70552">
        <ele>1634.859375</ele>
        <time>2012-08-20T08:49:00Z</time>
      </trkpt>
      <trkpt lat="42.93726" lon="-0.7056">
        <ele>1637.743164</ele>
        <time>2012-08-20T08:49:16Z</time>
      </trkpt>
      <trkpt lat="42.93718" lon="-0.70571">
        <ele>1640.146484</ele>
        <time>2012-08-20T08:49:33Z</time>
      </trkpt>
      <trkpt lat="42.93717" lon="-0.70571">
        <ele>1640.146484</ele>
        <time>2012-08-20T08:49:34Z</time>
      </trkpt>
      <trkpt lat="42.93708" lon="-0.70585">
        <ele>1643.030273</ele>
        <time>2012-08-20T08:49:53Z</time>
      </trkpt>
      <trkpt lat="42.937" lon="-0.70597">
        <ele>1644.953125</ele>
        <time>2012-08-20T08:50:10Z</time>
      </trkpt>
      <trkpt lat="42.9369" lon="-0.70607">
        <ele>1647.837158</ele>
        <time>2012-08-20T08:50:29Z</time>
      </trkpt>
      <trkpt lat="42.93683" lon="-0.70618">
        <ele>1649.759766</ele>
        <time>2012-08-20T08:50:47Z</time>
      </trkpt>
      <trkpt lat="42.93678" lon="-0.70626">
        <ele>1652.643555</ele>
        <time>2012-08-20T08:51:00Z</time>
      </trkpt>
      <trkpt lat="42.93673" lon="-0.70638">
        <ele>1655.527588</ele>
        <time>2012-08-20T08:51:18Z</time>
      </trkpt>
      <trkpt lat="42.9367" lon="-0.70648">
        <ele>1656.48877</ele>
        <time>2012-08-20T08:51:35Z</time>
      </trkpt>
      <trkpt lat="42.93665" lon="-0.70663">
        <ele>1658.89209</ele>
        <time>2012-08-20T08:52:05Z</time>
      </trkpt>
      <trkpt lat="42.93664" lon="-0.70668">
        <ele>1660.334229</ele>
        <time>2012-08-20T08:52:09Z</time>
      </trkpt>
      <trkpt lat="42.93661" lon="-0.70678">
        <ele>1661.776367</ele>
        <time>2012-08-20T08:52:19Z</time>
      </trkpt>
      <trkpt lat="42.93659" lon="-0.70681">
        <ele>1661.776367</ele>
        <time>2012-08-20T08:52:22Z</time>
      </trkpt>
      <trkpt lat="42.93656" lon="-0.70695">
        <ele>1665.621582</ele>
        <time>2012-08-20T08:52:37Z</time>
      </trkpt>
      <trkpt lat="42.93656" lon="-0.70714">
        <ele>1668.505371</ele>
        <time>2012-08-20T08:52:55Z</time>
      </trkpt>
      <trkpt lat="42.93656" lon="-0.70726">
        <ele>1670.427979</ele>
        <time>2012-08-20T08:53:08Z</time>
      </trkpt>
      <trkpt lat="42.93651" lon="-0.70746">
        <ele>1672.831299</ele>
        <time>2012-08-20T08:53:28Z</time>
      </trkpt>
      <trkpt lat="42.93648" lon="-0.70762">
        <ele>1674.273193</ele>
        <time>2012-08-20T08:53:46Z</time>
      </trkpt>
      <trkpt lat="42.93647" lon="-0.70778">
        <ele>1676.676758</ele>
        <time>2012-08-20T08:54:03Z</time>
      </trkpt>
      <trkpt lat="42.93647" lon="-0.70796">
        <ele>1678.599365</ele>
        <time>2012-08-20T08:54:21Z</time>
      </trkpt>
      <trkpt lat="42.93644" lon="-0.70814">
        <ele>1681.002686</ele>
        <time>2012-08-20T08:54:41Z</time>
      </trkpt>
      <trkpt lat="42.93643" lon="-0.70828">
        <ele>1683.886475</ele>
        <time>2012-08-20T08:54:54Z</time>
      </trkpt>
      <trkpt lat="42.93642" lon="-0.70828">
        <ele>1684.367188</ele>
        <time>2012-08-20T08:54:55Z</time>
      </trkpt>
      <trkpt lat="42.93636" lon="-0.70843">
        <ele>1687.731689</ele>
        <time>2012-08-20T08:55:12Z</time>
      </trkpt>
      <trkpt lat="42.93634" lon="-0.70863">
        <ele>1688.693115</ele>
        <time>2012-08-20T08:55:33Z</time>
      </trkpt>
      <trkpt lat="42.93631" lon="-0.7088">
        <ele>1690.615479</ele>
        <time>2012-08-20T08:55:52Z</time>
      </trkpt>
      <trkpt lat="42.93627" lon="-0.70898">
        <ele>1692.538574</ele>
        <time>2012-08-20T08:56:12Z</time>
      </trkpt>
      <trkpt lat="42.93623" lon="-0.70914">
        <ele>1694.460938</ele>
        <time>2012-08-20T08:56:30Z</time>
      </trkpt>
      <trkpt lat="42.93623" lon="-0.70916">
        <ele>1695.903076</ele>
        <time>2012-08-20T08:56:33Z</time>
      </trkpt>
      <trkpt lat="42.9362" lon="-0.70933">
        <ele>1696.864258</ele>
        <time>2012-08-20T08:56:52Z</time>
      </trkpt>
      <trkpt lat="42.93617" lon="-0.70948">
        <ele>1700.709473</ele>
        <time>2012-08-20T08:57:09Z</time>
      </trkpt>
      <trkpt lat="42.93612" lon="-0.70963">
        <ele>1702.63208</ele>
        <time>2012-08-20T08:57:27Z</time>
      </trkpt>
      <trkpt lat="42.93605" lon="-0.70975">
        <ele>1705.516113</ele>
        <time>2012-08-20T08:57:44Z</time>
      </trkpt>
      <trkpt lat="42.93597" lon="-0.70987">
        <ele>1706.958008</ele>
        <time>2012-08-20T08:58:02Z</time>
      </trkpt>
      <trkpt lat="42.93593" lon="-0.70995">
        <ele>1708.880859</ele>
        <time>2012-08-20T08:58:14Z</time>
      </trkpt>
      <trkpt lat="42.93587" lon="-0.71003">
        <ele>1712.245361</ele>
        <time>2012-08-20T08:58:30Z</time>
      </trkpt>
      <trkpt lat="42.93584" lon="-0.71015">
        <ele>1713.687256</ele>
        <time>2012-08-20T08:58:45Z</time>
      </trkpt>
      <trkpt lat="42.93586" lon="-0.71021">
        <ele>1713.687256</ele>
        <time>2012-08-20T08:59:05Z</time>
      </trkpt>
      <trkpt lat="42.93585" lon="-0.71032">
        <ele>1715.129395</ele>
        <time>2012-08-20T09:00:21Z</time>
      </trkpt>
      <trkpt lat="42.93585" lon="-0.71043">
        <ele>1717.052002</ele>
        <time>2012-08-20T09:00:35Z</time>
      </trkpt>
      <trkpt lat="42.93584" lon="-0.71057">
        <ele>1719.455322</ele>
        <time>2012-08-20T09:00:51Z</time>
      </trkpt>
      <trkpt lat="42.93584" lon="-0.71063">
        <ele>1720.897217</ele>
        <time>2012-08-20T09:00:59Z</time>
      </trkpt>
      <trkpt lat="42.93584" lon="-0.71071">
        <ele>1723.781006</ele>
        <time>2012-08-20T09:01:09Z</time>
      </trkpt>
      <trkpt lat="42.93578" lon="-0.71079">
        <ele>1725.223145</ele>
        <time>2012-08-20T09:01:23Z</time>
      </trkpt>
      <trkpt lat="42.93576" lon="-0.71089">
        <ele>1727.626465</ele>
        <time>2012-08-20T09:01:36Z</time>
      </trkpt>
      <trkpt lat="42.93575" lon="-0.71098">
        <ele>1728.587891</ele>
        <time>2012-08-20T09:01:49Z</time>
      </trkpt>
      <trkpt lat="42.93573" lon="-0.71098">
        <ele>1729.068359</ele>
        <time>2012-08-20T09:02:56Z</time>
      </trkpt>
      <trkpt lat="42.93574" lon="-0.71098">
        <ele>1729.068359</ele>
        <time>2012-08-20T09:05:30Z</time>
      </trkpt>
      <trkpt lat="42.93574" lon="-0.71098">
        <ele>1729.549072</ele>
        <time>2012-08-20T09:05:35Z</time>
      </trkpt>
      <trkpt lat="42.93573" lon="-0.71104">
        <ele>1729.068359</ele>
        <time>2012-08-20T09:06:02Z</time>
      </trkpt>
      <trkpt lat="42.93574" lon="-0.71112">
        <ele>1730.510498</ele>
        <time>2012-08-20T09:06:14Z</time>
      </trkpt>
      <trkpt lat="42.93573" lon="-0.7112">
        <ele>1733.394287</ele>
        <time>2012-08-20T09:06:25Z</time>
      </trkpt>
      <trkpt lat="42.93576" lon="-0.71134">
        <ele>1734.355713</ele>
        <time>2012-08-20T09:06:42Z</time>
      </trkpt>
      <trkpt lat="42.93577" lon="-0.71146">
        <ele>1736.27832</ele>
        <time>2012-08-20T09:06:56Z</time>
      </trkpt>
      <trkpt lat="42.93577" lon="-0.71154">
        <ele>1739.162109</ele>
        <time>2012-08-20T09:07:07Z</time>
      </trkpt>
      <trkpt lat="42.93577" lon="-0.71166">
        <ele>1740.604248</ele>
        <time>2012-08-20T09:07:23Z</time>
      </trkpt>
      <trkpt lat="42.93578" lon="-0.71174">
        <ele>1741.565674</ele>
        <time>2012-08-20T09:07:37Z</time>
      </trkpt>
      <trkpt lat="42.93581" lon="-0.71182">
        <ele>1744.449463</ele>
        <time>2012-08-20T09:07:51Z</time>
      </trkpt>
      <trkpt lat="42.93585" lon="-0.7119">
        <ele>1745.891602</ele>
        <time>2012-08-20T09:08:05Z</time>
      </trkpt>
      <trkpt lat="42.93583" lon="-0.71199">
        <ele>1747.333496</ele>
        <time>2012-08-20T09:08:19Z</time>
      </trkpt>
      <trkpt lat="42.9358" lon="-0.71211">
        <ele>1749.256104</ele>
        <time>2012-08-20T09:08:34Z</time>
      </trkpt>
      <trkpt lat="42.93578" lon="-0.71221">
        <ele>1750.697998</ele>
        <time>2012-08-20T09:08:50Z</time>
      </trkpt>
      <trkpt lat="42.93578" lon="-0.71222">
        <ele>1750.697998</ele>
        <time>2012-08-20T09:08:51Z</time>
      </trkpt>
      <trkpt lat="42.93572" lon="-0.7123">
        <ele>1751.178711</ele>
        <time>2012-08-20T09:09:04Z</time>
      </trkpt>
      <trkpt lat="42.93566" lon="-0.71236">
        <ele>1752.139893</ele>
        <time>2012-08-20T09:09:16Z</time>
      </trkpt>
      <trkpt lat="42.93559" lon="-0.71243">
        <ele>1753.582031</ele>
        <time>2012-08-20T09:09:31Z</time>
      </trkpt>
      <trkpt lat="42.93557" lon="-0.71258">
        <ele>1755.023926</ele>
        <time>2012-08-20T09:09:46Z</time>
      </trkpt>
      <trkpt lat="42.93558" lon="-0.7126">
        <ele>1756.946777</ele>
        <time>2012-08-20T09:09:49Z</time>
      </trkpt>
      <trkpt lat="42.93556" lon="-0.7127">
        <ele>1759.350098</ele>
        <time>2012-08-20T09:10:04Z</time>
      </trkpt>
      <trkpt lat="42.9355" lon="-0.71277">
        <ele>1761.272705</ele>
        <time>2012-08-20T09:10:18Z</time>
      </trkpt>
      <trkpt lat="42.93546" lon="-0.71286">
        <ele>1763.195312</ele>
        <time>2012-08-20T09:10:34Z</time>
      </trkpt>
      <trkpt lat="42.93542" lon="-0.71293">
        <ele>1765.11792</ele>
        <time>2012-08-20T09:10:47Z</time>
      </trkpt>
      <trkpt lat="42.93543" lon="-0.713">
        <ele>1768.482422</ele>
        <time>2012-08-20T09:11:01Z</time>
      </trkpt>
      <trkpt lat="42.93542" lon="-0.71308">
        <ele>1770.405029</ele>
        <time>2012-08-20T09:11:13Z</time>
      </trkpt>
      <trkpt lat="42.93545" lon="-0.71316">
        <ele>1772.327881</ele>
        <time>2012-08-20T09:11:28Z</time>
      </trkpt>
      <trkpt lat="42.93547" lon="-0.71323">
        <ele>1774.731201</ele>
        <time>2012-08-20T09:11:45Z</time>
      </trkpt>
      <trkpt lat="42.93549" lon="-0.71332">
        <ele>1777.134521</ele>
        <time>2012-08-20T09:12:03Z</time>
      </trkpt>
      <trkpt lat="42.93552" lon="-0.71336">
        <ele>1779.537598</ele>
        <time>2012-08-20T09:12:20Z</time>
      </trkpt>
      <trkpt lat="42.93558" lon="-0.71342">
        <ele>1781.460205</ele>
        <time>2012-08-20T09:12:35Z</time>
      </trkpt>
      <trkpt lat="42.93557" lon="-0.71349">
        <ele>1783.863525</ele>
        <time>2012-08-20T09:12:51Z</time>
      </trkpt>
      <trkpt lat="42.93555" lon="-0.71356">
        <ele>1786.266846</ele>
        <time>2012-08-20T09:13:05Z</time>
      </trkpt>
      <trkpt lat="42.93556" lon="-0.71372">
        <ele>1789.150879</ele>
        <time>2012-08-20T09:13:25Z</time>
      </trkpt>
      <trkpt lat="42.93557" lon="-0.71377">
        <ele>1790.592773</ele>
        <time>2012-08-20T09:13:32Z</time>
      </trkpt>
      <trkpt lat="42.93553" lon="-0.71389">
        <ele>1792.996094</ele>
        <time>2012-08-20T09:13:49Z</time>
      </trkpt>
      <trkpt lat="42.93546" lon="-0.71392">
        <ele>1794.918701</ele>
        <time>2012-08-20T09:14:04Z</time>
      </trkpt>
      <trkpt lat="42.93543" lon="-0.71401">
        <ele>1797.802734</ele>
        <time>2012-08-20T09:14:17Z</time>
      </trkpt>
      <trkpt lat="42.93543" lon="-0.71401">
        <ele>1797.802734</ele>
        <time>2012-08-20T09:14:18Z</time>
      </trkpt>
      <trkpt lat="42.93541" lon="-0.71403">
        <ele>1799.244629</ele>
        <time>2012-08-20T09:14:21Z</time>
      </trkpt>
      <trkpt lat="42.93541" lon="-0.71411">
        <ele>1799.244629</ele>
        <time>2012-08-20T09:14:34Z</time>
      </trkpt>
      <trkpt lat="42.93542" lon="-0.71413">
        <ele>1797.322021</ele>
        <time>2012-08-20T09:14:38Z</time>
      </trkpt>
      <trkpt lat="42.93543" lon="-0.71415">
        <ele>1799.244629</ele>
        <time>2012-08-20T09:15:00Z</time>
      </trkpt>
      <trkpt lat="42.9354" lon="-0.71426">
        <ele>1800.206055</ele>
        <time>2012-08-20T09:15:18Z</time>
      </trkpt>
      <trkpt lat="42.93538" lon="-0.7143">
        <ele>1799.244629</ele>
        <time>2012-08-20T09:15:39Z</time>
      </trkpt>
      <trkpt lat="42.93536" lon="-0.71438">
        <ele>1800.206055</ele>
        <time>2012-08-20T09:15:51Z</time>
      </trkpt>
      <trkpt lat="42.93533" lon="-0.71448">
        <ele>1801.167236</ele>
        <time>2012-08-20T09:16:06Z</time>
      </trkpt>
      <trkpt lat="42.93529" lon="-0.71458">
        <ele>1802.128418</ele>
        <time>2012-08-20T09:16:19Z</time>
      </trkpt>
      <trkpt lat="42.93528" lon="-0.71471">
        <ele>1802.609131</ele>
        <time>2012-08-20T09:16:36Z</time>
      </trkpt>
      <trkpt lat="42.93528" lon="-0.71473">
        <ele>1804.051514</ele>
        <time>2012-08-20T09:16:39Z</time>
      </trkpt>
      <trkpt lat="42.93528" lon="-0.71478">
        <ele>1805.973877</ele>
        <time>2012-08-20T09:16:52Z</time>
      </trkpt>
      <trkpt lat="42.93516" lon="-0.71491">
        <ele>1805.012695</ele>
        <time>2012-08-20T09:17:17Z</time>
      </trkpt>
      <trkpt lat="42.93511" lon="-0.71499">
        <ele>1805.973877</ele>
        <time>2012-08-20T09:17:28Z</time>
      </trkpt>
      <trkpt lat="42.93506" lon="-0.7151">
        <ele>1805.973877</ele>
        <time>2012-08-20T09:17:42Z</time>
      </trkpt>
      <trkpt lat="42.93502" lon="-0.71513">
        <ele>1805.493408</ele>
        <time>2012-08-20T09:18:02Z</time>
      </trkpt>
      <trkpt lat="42.93499" lon="-0.71523">
        <ele>1805.973877</ele>
        <time>2012-08-20T09:18:30Z</time>
      </trkpt>
      <trkpt lat="42.93493" lon="-0.71539">
        <ele>1808.85791</ele>
        <time>2012-08-20T09:18:48Z</time>
      </trkpt>
      <trkpt lat="42.93493" lon="-0.7154">
        <ele>1808.85791</ele>
        <time>2012-08-20T09:18:49Z</time>
      </trkpt>
      <trkpt lat="42.93486" lon="-0.7155">
        <ele>1809.819092</ele>
        <time>2012-08-20T09:19:08Z</time>
      </trkpt>
      <trkpt lat="42.93473" lon="-0.71555">
        <ele>1810.780518</ele>
        <time>2012-08-20T09:22:07Z</time>
      </trkpt>
      <trkpt lat="42.9346" lon="-0.7156">
        <ele>1810.299805</ele>
        <time>2012-08-20T09:22:22Z</time>
      </trkpt>
      <trkpt lat="42.93447" lon="-0.71571">
        <ele>1812.222412</ele>
        <time>2012-08-20T09:22:42Z</time>
      </trkpt>
      <trkpt lat="42.93439" lon="-0.71587">
        <ele>1813.664307</ele>
        <time>2012-08-20T09:22:59Z</time>
      </trkpt>
      <trkpt lat="42.93428" lon="-0.71599">
        <ele>1811.741943</ele>
        <time>2012-08-20T09:23:16Z</time>
      </trkpt>
      <trkpt lat="42.93425" lon="-0.71614">
        <ele>1812.703125</ele>
        <time>2012-08-20T09:23:31Z</time>
      </trkpt>
      <trkpt lat="42.93421" lon="-0.71621">
        <ele>1812.703125</ele>
        <time>2012-08-20T09:23:38Z</time>
      </trkpt>
      <trkpt lat="42.93415" lon="-0.71627">
        <ele>1812.222412</ele>
        <time>2012-08-20T09:23:46Z</time>
      </trkpt>
      <trkpt lat="42.93405" lon="-0.71646">
        <ele>1814.14502</ele>
        <time>2012-08-20T09:24:06Z</time>
      </trkpt>
      <trkpt lat="42.934" lon="-0.71651">
        <ele>1814.14502</ele>
        <time>2012-08-20T09:24:20Z</time>
      </trkpt>
      <trkpt lat="42.93391" lon="-0.71665">
        <ele>1814.625732</ele>
        <time>2012-08-20T09:24:35Z</time>
      </trkpt>
      <trkpt lat="42.93387" lon="-0.71678">
        <ele>1813.664307</ele>
        <time>2012-08-20T09:24:49Z</time>
      </trkpt>
      <trkpt lat="42.93393" lon="-0.7169">
        <ele>1815.106445</ele>
        <time>2012-08-20T09:25:02Z</time>
      </trkpt>
      <trkpt lat="42.93395" lon="-0.7169">
        <ele>1815.106445</ele>
        <time>2012-08-20T09:25:04Z</time>
      </trkpt>
      <trkpt lat="42.93397" lon="-0.71703">
        <ele>1815.587158</ele>
        <time>2012-08-20T09:25:16Z</time>
      </trkpt>
      <trkpt lat="42.93395" lon="-0.71707">
        <ele>1815.106445</ele>
        <time>2012-08-20T09:25:20Z</time>
      </trkpt>
      <trkpt lat="42.93391" lon="-0.71726">
        <ele>1815.587158</ele>
        <time>2012-08-20T09:25:37Z</time>
      </trkpt>
      <trkpt lat="42.9339" lon="-0.71736">
        <ele>1817.990234</ele>
        <time>2012-08-20T09:25:50Z</time>
      </trkpt>
      <trkpt lat="42.93381" lon="-0.71747">
        <ele>1819.432373</ele>
        <time>2012-08-20T09:26:08Z</time>
      </trkpt>
      <trkpt lat="42.93371" lon="-0.71755">
        <ele>1820.874512</ele>
        <time>2012-08-20T09:26:25Z</time>
      </trkpt>
      <trkpt lat="42.93366" lon="-0.71772">
        <ele>1823.277832</ele>
        <time>2012-08-20T09:26:42Z</time>
      </trkpt>
      <trkpt lat="42.93363" lon="-0.71782">
        <ele>1825.200195</ele>
        <time>2012-08-20T09:26:58Z</time>
      </trkpt>
      <trkpt lat="42.93358" lon="-0.71792">
        <ele>1825.680908</ele>
        <time>2012-08-20T09:27:10Z</time>
      </trkpt>
      <trkpt lat="42.93352" lon="-0.71807">
        <ele>1825.680908</ele>
        <time>2012-08-20T09:27:27Z</time>
      </trkpt>
      <trkpt lat="42.93347" lon="-0.71815">
        <ele>1826.642334</ele>
        <time>2012-08-20T09:27:40Z</time>
      </trkpt>
      <trkpt lat="42.93346" lon="-0.71825">
        <ele>1828.564941</ele>
        <time>2012-08-20T09:27:54Z</time>
      </trkpt>
      <trkpt lat="42.93344" lon="-0.7184">
        <ele>1831.44873</ele>
        <time>2012-08-20T09:28:12Z</time>
      </trkpt>
      <trkpt lat="42.93343" lon="-0.71854">
        <ele>1832.410156</ele>
        <time>2012-08-20T09:28:28Z</time>
      </trkpt>
      <trkpt lat="42.93343" lon="-0.71862">
        <ele>1835.293945</ele>
        <time>2012-08-20T09:28:39Z</time>
      </trkpt>
      <trkpt lat="42.93342" lon="-0.71869">
        <ele>1836.255615</ele>
        <time>2012-08-20T09:28:53Z</time>
      </trkpt>
      <trkpt lat="42.93337" lon="-0.71873">
        <ele>1837.69751</ele>
        <time>2012-08-20T09:29:16Z</time>
      </trkpt>
      <trkpt lat="42.93337" lon="-0.71876">
        <ele>1836.736084</ele>
        <time>2012-08-20T09:29:33Z</time>
      </trkpt>
      <trkpt lat="42.93332" lon="-0.71875">
        <ele>1837.216797</ele>
        <time>2012-08-20T09:30:33Z</time>
      </trkpt>
      <trkpt lat="42.93325" lon="-0.71879">
        <ele>1837.216797</ele>
        <time>2012-08-20T09:30:37Z</time>
      </trkpt>
      <trkpt lat="42.93336" lon="-0.71877">
        <ele>1837.69751</ele>
        <time>2012-08-20T09:30:51Z</time>
      </trkpt>
      <trkpt lat="42.93332" lon="-0.71878">
        <ele>1838.178223</ele>
        <time>2012-08-20T09:31:02Z</time>
      </trkpt>
      <trkpt lat="42.93355" lon="-0.71869">
        <ele>1838.658936</ele>
        <time>2012-08-20T09:32:00Z</time>
      </trkpt>
      <trkpt lat="42.93358" lon="-0.71871">
        <ele>1837.69751</ele>
        <time>2012-08-20T09:32:22Z</time>
      </trkpt>
      <trkpt lat="42.93359" lon="-0.71867">
        <ele>1837.69751</ele>
        <time>2012-08-20T09:32:29Z</time>
      </trkpt>
      <trkpt lat="42.93337" lon="-0.71872">
        <ele>1838.658936</ele>
        <time>2012-08-20T09:32:48Z</time>
      </trkpt>
      <trkpt lat="42.93335" lon="-0.7188">
        <ele>1842.023438</ele>
        <time>2012-08-20T09:38:37Z</time>
      </trkpt>
      <trkpt lat="42.93331" lon="-0.71892">
        <ele>1843.465332</ele>
        <time>2012-08-20T09:38:53Z</time>
      </trkpt>
      <trkpt lat="42.93329" lon="-0.71899">
        <ele>1844.426514</ele>
        <time>2012-08-20T09:39:12Z</time>
      </trkpt>
      <trkpt lat="42.93322" lon="-0.71914">
        <ele>1846.349365</ele>
        <time>2012-08-20T09:40:01Z</time>
      </trkpt>
      <trkpt lat="42.93313" lon="-0.71922">
        <ele>1846.349365</ele>
        <time>2012-08-20T09:40:14Z</time>
      </trkpt>
      <trkpt lat="42.93308" lon="-0.71932">
        <ele>1847.310547</ele>
        <time>2012-08-20T09:40:26Z</time>
      </trkpt>
      <trkpt lat="42.93304" lon="-0.71949">
        <ele>1849.233154</ele>
        <time>2012-08-20T09:40:42Z</time>
      </trkpt>
      <trkpt lat="42.93301" lon="-0.71964">
        <ele>1850.675049</ele>
        <time>2012-08-20T09:40:54Z</time>
      </trkpt>
      <trkpt lat="42.93295" lon="-0.71983">
        <ele>1851.155762</ele>
        <time>2012-08-20T09:41:12Z</time>
      </trkpt>
      <trkpt lat="42.93286" lon="-0.72003">
        <ele>1854.040039</ele>
        <time>2012-08-20T09:41:31Z</time>
      </trkpt>
      <trkpt lat="42.93283" lon="-0.72027">
        <ele>1853.078613</ele>
        <time>2012-08-20T09:41:50Z</time>
      </trkpt>
      <trkpt lat="42.93278" lon="-0.72043">
        <ele>1853.078613</ele>
        <time>2012-08-20T09:42:03Z</time>
      </trkpt>
      <trkpt lat="42.93267" lon="-0.72058">
        <ele>1853.559326</ele>
        <time>2012-08-20T09:42:20Z</time>
      </trkpt>
      <trkpt lat="42.93255" lon="-0.72074">
        <ele>1853.078613</ele>
        <time>2012-08-20T09:42:37Z</time>
      </trkpt>
      <trkpt lat="42.93242" lon="-0.72082">
        <ele>1852.5979</ele>
        <time>2012-08-20T09:42:52Z</time>
      </trkpt>
      <trkpt lat="42.93233" lon="-0.72097">
        <ele>1853.559326</ele>
        <time>2012-08-20T09:43:09Z</time>
      </trkpt>
      <trkpt lat="42.93224" lon="-0.72116">
        <ele>1855.481934</ele>
        <time>2012-08-20T09:43:28Z</time>
      </trkpt>
      <trkpt lat="42.93216" lon="-0.72133">
        <ele>1857.404541</ele>
        <time>2012-08-20T09:43:47Z</time>
      </trkpt>
      <trkpt lat="42.93215" lon="-0.72134">
        <ele>1856.923828</ele>
        <time>2012-08-20T09:43:49Z</time>
      </trkpt>
      <trkpt lat="42.93209" lon="-0.72146">
        <ele>1856.923828</ele>
        <time>2012-08-20T09:44:03Z</time>
      </trkpt>
      <trkpt lat="42.93201" lon="-0.72164">
        <ele>1859.807617</ele>
        <time>2012-08-20T09:44:21Z</time>
      </trkpt>
      <trkpt lat="42.93193" lon="-0.7218">
        <ele>1861.249756</ele>
        <time>2012-08-20T09:44:38Z</time>
      </trkpt>
      <trkpt lat="42.93183" lon="-0.72195">
        <ele>1864.133545</ele>
        <time>2012-08-20T09:44:54Z</time>
      </trkpt>
      <trkpt lat="42.9318" lon="-0.72198">
        <ele>1864.133545</ele>
        <time>2012-08-20T09:44:58Z</time>
      </trkpt>
      <trkpt lat="42.93165" lon="-0.72212">
        <ele>1865.575684</ele>
        <time>2012-08-20T09:45:17Z</time>
      </trkpt>
      <trkpt lat="42.93161" lon="-0.72221">
        <ele>1867.017578</ele>
        <time>2012-08-20T09:45:34Z</time>
      </trkpt>
      <trkpt lat="42.93157" lon="-0.72228">
        <ele>1867.498047</ele>
        <time>2012-08-20T09:46:06Z</time>
      </trkpt>
      <trkpt lat="42.93154" lon="-0.72228">
        <ele>1868.94043</ele>
        <time>2012-08-20T09:46:33Z</time>
      </trkpt>
      <trkpt lat="42.93143" lon="-0.72228">
        <ele>1869.421143</ele>
        <time>2012-08-20T09:46:55Z</time>
      </trkpt>
      <trkpt lat="42.93131" lon="-0.72237">
        <ele>1870.382324</ele>
        <time>2012-08-20T09:47:13Z</time>
      </trkpt>
      <trkpt lat="42.93119" lon="-0.72248">
        <ele>1872.304932</ele>
        <time>2012-08-20T09:47:32Z</time>
      </trkpt>
      <trkpt lat="42.93111" lon="-0.72254">
        <ele>1875.188721</ele>
        <time>2012-08-20T09:47:45Z</time>
      </trkpt>
      <trkpt lat="42.93107" lon="-0.72258">
        <ele>1876.630859</ele>
        <time>2012-08-20T09:47:58Z</time>
      </trkpt>
      <trkpt lat="42.93097" lon="-0.72261">
        <ele>1878.553467</ele>
        <time>2012-08-20T09:48:14Z</time>
      </trkpt>
      <trkpt lat="42.93091" lon="-0.72267">
        <ele>1881.917969</ele>
        <time>2012-08-20T09:48:29Z</time>
      </trkpt>
      <trkpt lat="42.9308" lon="-0.72275">
        <ele>1884.321533</ele>
        <time>2012-08-20T09:48:48Z</time>
      </trkpt>
      <trkpt lat="42.93077" lon="-0.72284">
        <ele>1885.763428</ele>
        <time>2012-08-20T09:49:03Z</time>
      </trkpt>
      <trkpt lat="42.9307" lon="-0.72292">
        <ele>1887.686035</ele>
        <time>2012-08-20T09:49:20Z</time>
      </trkpt>
      <trkpt lat="42.93065" lon="-0.72296">
        <ele>1890.089355</ele>
        <time>2012-08-20T09:49:35Z</time>
      </trkpt>
      <trkpt lat="42.93061" lon="-0.72299">
        <ele>1892.011963</ele>
        <time>2012-08-20T09:49:46Z</time>
      </trkpt>
      <trkpt lat="42.93054" lon="-0.72306">
        <ele>1894.415039</ele>
        <time>2012-08-20T09:50:03Z</time>
      </trkpt>
      <trkpt lat="42.9305" lon="-0.72311">
        <ele>1897.299072</ele>
        <time>2012-08-20T09:50:14Z</time>
      </trkpt>
      <trkpt lat="42.93044" lon="-0.72314">
        <ele>1900.18335</ele>
        <time>2012-08-20T09:50:29Z</time>
      </trkpt>
      <trkpt lat="42.93039" lon="-0.72317">
        <ele>1903.067139</ele>
        <time>2012-08-20T09:50:43Z</time>
      </trkpt>
      <trkpt lat="42.93033" lon="-0.72317">
        <ele>1904.989746</ele>
        <time>2012-08-20T09:51:00Z</time>
      </trkpt>
      <trkpt lat="42.93026" lon="-0.72317">
        <ele>1908.354248</ele>
        <time>2012-08-20T09:51:15Z</time>
      </trkpt>
      <trkpt lat="42.93021" lon="-0.72318">
        <ele>1911.238281</ele>
        <time>2012-08-20T09:51:26Z</time>
      </trkpt>
      <trkpt lat="42.93014" lon="-0.72318">
        <ele>1914.12207</ele>
        <time>2012-08-20T09:51:41Z</time>
      </trkpt>
      <trkpt lat="42.93006" lon="-0.72316">
        <ele>1917.486816</ele>
        <time>2012-08-20T09:51:57Z</time>
      </trkpt>
      <trkpt lat="42.93" lon="-0.72323">
        <ele>1919.409668</ele>
        <time>2012-08-20T09:52:13Z</time>
      </trkpt>
      <trkpt lat="42.92998" lon="-0.72318">
        <ele>1922.77417</ele>
        <time>2012-08-20T09:52:28Z</time>
      </trkpt>
      <trkpt lat="42.92995" lon="-0.72324">
        <ele>1925.177246</ele>
        <time>2012-08-20T09:52:43Z</time>
      </trkpt>
      <trkpt lat="42.92987" lon="-0.72338">
        <ele>1927.580566</ele>
        <time>2012-08-20T09:53:07Z</time>
      </trkpt>
      <trkpt lat="42.92979" lon="-0.72338">
        <ele>1929.022461</ele>
        <time>2012-08-20T09:53:21Z</time>
      </trkpt>
      <trkpt lat="42.9297" lon="-0.72336">
        <ele>1931.425781</ele>
        <time>2012-08-20T09:53:38Z</time>
      </trkpt>
      <trkpt lat="42.92967" lon="-0.72342">
        <ele>1934.310059</ele>
        <time>2012-08-20T09:53:53Z</time>
      </trkpt>
      <trkpt lat="42.92964" lon="-0.72341">
        <ele>1935.751953</ele>
        <time>2012-08-20T09:54:24Z</time>
      </trkpt>
      <trkpt lat="42.9296" lon="-0.72344">
        <ele>1936.713135</ele>
        <time>2012-08-20T09:54:42Z</time>
      </trkpt>
      <trkpt lat="42.92959" lon="-0.72348">
        <ele>1938.155273</ele>
        <time>2012-08-20T09:54:49Z</time>
      </trkpt>
      <trkpt lat="42.92956" lon="-0.72356">
        <ele>1937.674561</ele>
        <time>2012-08-20T09:55:06Z</time>
      </trkpt>
      <trkpt lat="42.92955" lon="-0.72365">
        <ele>1939.597168</ele>
        <time>2012-08-20T09:55:21Z</time>
      </trkpt>
      <trkpt lat="42.92953" lon="-0.72373">
        <ele>1942.000488</ele>
        <time>2012-08-20T09:55:37Z</time>
      </trkpt>
      <trkpt lat="42.92952" lon="-0.72378">
        <ele>1942.96167</ele>
        <time>2012-08-20T09:55:51Z</time>
      </trkpt>
      <trkpt lat="42.9295" lon="-0.72375">
        <ele>1942.481201</ele>
        <time>2012-08-20T09:56:14Z</time>
      </trkpt>
      <trkpt lat="42.92949" lon="-0.72379">
        <ele>1942.96167</ele>
        <time>2012-08-20T09:56:35Z</time>
      </trkpt>
      <trkpt lat="42.92949" lon="-0.72387">
        <ele>1942.96167</ele>
        <time>2012-08-20T09:56:50Z</time>
      </trkpt>
      <trkpt lat="42.92951" lon="-0.72405">
        <ele>1944.884277</ele>
        <time>2012-08-20T09:57:10Z</time>
      </trkpt>
      <trkpt lat="42.92953" lon="-0.7241">
        <ele>1943.442383</ele>
        <time>2012-08-20T09:57:18Z</time>
      </trkpt>
      <trkpt lat="42.92945" lon="-0.7242">
        <ele>1944.884277</ele>
        <time>2012-08-20T09:57:34Z</time>
      </trkpt>
      <trkpt lat="42.92939" lon="-0.72424">
        <ele>1944.884277</ele>
        <time>2012-08-20T09:57:49Z</time>
      </trkpt>
      <trkpt lat="42.9293" lon="-0.72423">
        <ele>1945.845703</ele>
        <time>2012-08-20T09:58:03Z</time>
      </trkpt>
      <trkpt lat="42.9293" lon="-0.72421">
        <ele>1945.36499</ele>
        <time>2012-08-20T09:58:33Z</time>
      </trkpt>
      <trkpt lat="42.92927" lon="-0.72427">
        <ele>1946.326416</ele>
        <time>2012-08-20T09:59:13Z</time>
      </trkpt>
      <trkpt lat="42.92915" lon="-0.72431">
        <ele>1946.806885</ele>
        <time>2012-08-20T09:59:31Z</time>
      </trkpt>
      <trkpt lat="42.92906" lon="-0.72439">
        <ele>1946.806885</ele>
        <time>2012-08-20T09:59:47Z</time>
      </trkpt>
      <trkpt lat="42.92898" lon="-0.72445">
        <ele>1946.806885</ele>
        <time>2012-08-20T10:00:01Z</time>
      </trkpt>
      <trkpt lat="42.92895" lon="-0.7245">
        <ele>1950.171875</ele>
        <time>2012-08-20T10:00:14Z</time>
      </trkpt>
      <trkpt lat="42.92889" lon="-0.72453">
        <ele>1951.133057</ele>
        <time>2012-08-20T10:00:28Z</time>
      </trkpt>
      <trkpt lat="42.92885" lon="-0.72451">
        <ele>1950.171875</ele>
        <time>2012-08-20T10:00:52Z</time>
      </trkpt>
      <trkpt lat="42.92885" lon="-0.72444">
        <ele>1948.729736</ele>
        <time>2012-08-20T10:01:07Z</time>
      </trkpt>
      <trkpt lat="42.92886" lon="-0.72443">
        <ele>1948.729736</ele>
        <time>2012-08-20T10:01:26Z</time>
      </trkpt>
      <trkpt lat="42.92886" lon="-0.72444">
        <ele>1948.249023</ele>
        <time>2012-08-20T10:01:53Z</time>
      </trkpt>
      <trkpt lat="42.92884" lon="-0.72443">
        <ele>1949.691162</ele>
        <time>2012-08-20T10:02:53Z</time>
      </trkpt>
      <trkpt lat="42.92893" lon="-0.72441">
        <ele>1949.210449</ele>
        <time>2012-08-20T10:03:53Z</time>
      </trkpt>
      <trkpt lat="42.9289" lon="-0.7244">
        <ele>1950.171875</ele>
        <time>2012-08-20T10:05:37Z</time>
      </trkpt>
      <trkpt lat="42.92886" lon="-0.72442">
        <ele>1950.652344</ele>
        <time>2012-08-20T10:07:15Z</time>
      </trkpt>
      <trkpt lat="42.92892" lon="-0.72448">
        <ele>1949.691162</ele>
        <time>2012-08-20T10:08:01Z</time>
      </trkpt>
      <trkpt lat="42.92891" lon="-0.72443">
        <ele>1949.691162</ele>
        <time>2012-08-20T10:10:04Z</time>
      </trkpt>
      <trkpt lat="42.92892" lon="-0.72443">
        <ele>1949.691162</ele>
        <time>2012-08-20T10:10:25Z</time>
      </trkpt>
      <trkpt lat="42.92894" lon="-0.72452">
        <ele>1951.133057</ele>
        <time>2012-08-20T10:12:57Z</time>
      </trkpt>
      <trkpt lat="42.92912" lon="-0.72448">
        <ele>1951.61377</ele>
        <time>2012-08-20T10:13:23Z</time>
      </trkpt>
      <trkpt lat="42.92915" lon="-0.72453">
        <ele>1951.61377</ele>
        <time>2012-08-20T10:13:45Z</time>
      </trkpt>
      <trkpt lat="42.92925" lon="-0.72457">
        <ele>1952.094238</ele>
        <time>2012-08-20T10:13:55Z</time>
      </trkpt>
      <trkpt lat="42.92943" lon="-0.72464">
        <ele>1952.094238</ele>
        <time>2012-08-20T10:14:07Z</time>
      </trkpt>
      <trkpt lat="42.92891" lon="-0.72443">
        <ele>1952.094238</ele>
        <time>2012-08-20T10:14:36Z</time>
      </trkpt>
      <trkpt lat="42.92904" lon="-0.72453">
        <ele>1953.055664</ele>
        <time>2012-08-20T10:15:04Z</time>
      </trkpt>
      <trkpt lat="42.92895" lon="-0.72446">
        <ele>1952.094238</ele>
        <time>2012-08-20T10:15:26Z</time>
      </trkpt>
      <trkpt lat="42.92895" lon="-0.72446">
        <ele>1952.574951</ele>
        <time>2012-08-20T10:15:38Z</time>
      </trkpt>
      <trkpt lat="42.9289" lon="-0.72443">
        <ele>1952.094238</ele>
        <time>2012-08-20T10:16:04Z</time>
      </trkpt>
      <trkpt lat="42.92899" lon="-0.72447">
        <ele>1952.574951</ele>
        <time>2012-08-20T10:17:30Z</time>
      </trkpt>
      <trkpt lat="42.92901" lon="-0.72443">
        <ele>1952.574951</ele>
        <time>2012-08-20T10:17:56Z</time>
      </trkpt>
      <trkpt lat="42.9289" lon="-0.72436">
        <ele>1954.01709</ele>
        <time>2012-08-20T10:20:12Z</time>
      </trkpt>
      <trkpt lat="42.92898" lon="-0.72443">
        <ele>1954.497559</ele>
        <time>2012-08-20T10:21:03Z</time>
      </trkpt>
      <trkpt lat="42.92886" lon="-0.72441">
        <ele>1954.01709</ele>
        <time>2012-08-20T10:21:15Z</time>
      </trkpt>
      <trkpt lat="42.92891" lon="-0.72449">
        <ele>1954.978271</ele>
        <time>2012-08-20T10:21:33Z</time>
      </trkpt>
      <trkpt lat="42.92902" lon="-0.72449">
        <ele>1954.497559</ele>
        <time>2012-08-20T10:21:48Z</time>
      </trkpt>
      <trkpt lat="42.92905" lon="-0.72447">
        <ele>1954.497559</ele>
        <time>2012-08-20T10:22:13Z</time>
      </trkpt>
      <trkpt lat="42.92904" lon="-0.72447">
        <ele>1954.978271</ele>
        <time>2012-08-20T10:23:21Z</time>
      </trkpt>
      <trkpt lat="42.92893" lon="-0.72442">
        <ele>1955.458984</ele>
        <time>2012-08-20T10:23:33Z</time>
      </trkpt>
      <trkpt lat="42.92886" lon="-0.72441">
        <ele>1954.01709</ele>
        <time>2012-08-20T10:26:47Z</time>
      </trkpt>
      <trkpt lat="42.92896" lon="-0.72446">
        <ele>1954.978271</ele>
        <time>2012-08-20T10:29:27Z</time>
      </trkpt>
      <trkpt lat="42.92901" lon="-0.72447">
        <ele>1953.536377</ele>
        <time>2012-08-20T10:29:45Z</time>
      </trkpt>
      <trkpt lat="42.92907" lon="-0.72448">
        <ele>1954.978271</ele>
        <time>2012-08-20T10:29:56Z</time>
      </trkpt>
      <trkpt lat="42.92908" lon="-0.72449">
        <ele>1954.497559</ele>
        <time>2012-08-20T10:30:01Z</time>
      </trkpt>
      <trkpt lat="42.92908" lon="-0.72449">
        <ele>1955.939453</ele>
        <time>2012-08-20T10:30:03Z</time>
      </trkpt>
      <trkpt lat="42.92908" lon="-0.72449">
        <ele>1954.978271</ele>
        <time>2012-08-20T10:30:05Z</time>
      </trkpt>
      <trkpt lat="42.92904" lon="-0.72449">
        <ele>1954.497559</ele>
        <time>2012-08-20T10:30:47Z</time>
      </trkpt>
      <trkpt lat="42.92903" lon="-0.72449">
        <ele>1953.536377</ele>
        <time>2012-08-20T10:30:53Z</time>
      </trkpt>
      <trkpt lat="42.92903" lon="-0.72449">
        <ele>1956.900879</ele>
        <time>2012-08-20T10:30:55Z</time>
      </trkpt>
      <trkpt lat="42.92902" lon="-0.72449">
        <ele>1952.094238</ele>
        <time>2012-08-20T10:30:58Z</time>
      </trkpt>
      <trkpt lat="42.92902" lon="-0.72449">
        <ele>1955.458984</ele>
        <time>2012-08-20T10:31:00Z</time>
      </trkpt>
      <trkpt lat="42.92901" lon="-0.72449">
        <ele>1951.61377</ele>
        <time>2012-08-20T10:31:15Z</time>
      </trkpt>
      <trkpt lat="42.92901" lon="-0.72449">
        <ele>1955.458984</ele>
        <time>2012-08-20T10:31:19Z</time>
      </trkpt>
      <trkpt lat="42.92899" lon="-0.72449">
        <ele>1954.978271</ele>
        <time>2012-08-20T10:31:36Z</time>
      </trkpt>
      <trkpt lat="42.92899" lon="-0.72448">
        <ele>1951.133057</ele>
        <time>2012-08-20T10:31:44Z</time>
      </trkpt>
      <trkpt lat="42.92899" lon="-0.72448">
        <ele>1954.01709</ele>
        <time>2012-08-20T10:31:45Z</time>
      </trkpt>
      <trkpt lat="42.92899" lon="-0.72448">
        <ele>1954.978271</ele>
        <time>2012-08-20T10:31:47Z</time>
      </trkpt>
      <trkpt lat="42.92892" lon="-0.72436">
        <ele>1951.61377</ele>
        <time>2012-08-20T10:39:15Z</time>
      </trkpt>
      <trkpt lat="42.929" lon="-0.7243">
        <ele>1954.978271</ele>
        <time>2012-08-20T10:45:17Z</time>
      </trkpt>
      <trkpt lat="42.92901" lon="-0.72434">
        <ele>1954.497559</ele>
        <time>2012-08-20T10:45:38Z</time>
      </trkpt>
      <trkpt lat="42.9291" lon="-0.72427">
        <ele>1957.381592</ele>
        <time>2012-08-20T10:48:24Z</time>
      </trkpt>
      <trkpt lat="42.92913" lon="-0.7243">
        <ele>1960.265381</ele>
        <time>2012-08-20T10:56:18Z</time>
      </trkpt>
      <trkpt lat="42.92899" lon="-0.72442">
        <ele>1957.862305</ele>
        <time>2012-08-20T10:57:38Z</time>
      </trkpt>
      <trkpt lat="42.92893" lon="-0.72438">
        <ele>1960.265381</ele>
        <time>2012-08-20T11:00:40Z</time>
      </trkpt>
      <trkpt lat="42.92898" lon="-0.7244">
        <ele>1959.784668</ele>
        <time>2012-08-20T11:01:10Z</time>
      </trkpt>
      <trkpt lat="42.9289" lon="-0.72442">
        <ele>1959.784668</ele>
        <time>2012-08-20T11:01:36Z</time>
      </trkpt>
      <trkpt lat="42.92886" lon="-0.72447">
        <ele>1958.342773</ele>
        <time>2012-08-20T11:02:12Z</time>
      </trkpt>
      <trkpt lat="42.9289" lon="-0.7245">
        <ele>1957.862305</ele>
        <time>2012-08-20T11:02:41Z</time>
      </trkpt>
      <trkpt lat="42.92893" lon="-0.72451">
        <ele>1957.381592</ele>
        <time>2012-08-20T11:02:57Z</time>
      </trkpt>
      <trkpt lat="42.92894" lon="-0.72451">
        <ele>1956.900879</ele>
        <time>2012-08-20T11:03:18Z</time>
      </trkpt>
      <trkpt lat="42.929" lon="-0.72446">
        <ele>1956.420166</ele>
        <time>2012-08-20T11:03:52Z</time>
      </trkpt>
      <trkpt lat="42.92907" lon="-0.72441">
        <ele>1955.939453</ele>
        <time>2012-08-20T11:04:09Z</time>
      </trkpt>
      <trkpt lat="42.92916" lon="-0.72432">
        <ele>1955.458984</ele>
        <time>2012-08-20T11:04:24Z</time>
      </trkpt>
      <trkpt lat="42.92919" lon="-0.72431">
        <ele>1955.939453</ele>
        <time>2012-08-20T11:04:41Z</time>
      </trkpt>
      <trkpt lat="42.92921" lon="-0.72431">
        <ele>1955.939453</ele>
        <time>2012-08-20T11:05:01Z</time>
      </trkpt>
      <trkpt lat="42.92926" lon="-0.72424">
        <ele>1954.978271</ele>
        <time>2012-08-20T11:05:22Z</time>
      </trkpt>
      <trkpt lat="42.92935" lon="-0.72423">
        <ele>1954.497559</ele>
        <time>2012-08-20T11:05:37Z</time>
      </trkpt>
      <trkpt lat="42.92943" lon="-0.72424">
        <ele>1955.458984</ele>
        <time>2012-08-20T11:05:50Z</time>
      </trkpt>
      <trkpt lat="42.92952" lon="-0.72417">
        <ele>1954.01709</ele>
        <time>2012-08-20T11:06:04Z</time>
      </trkpt>
      <trkpt lat="42.92954" lon="-0.7241">
        <ele>1954.978271</ele>
        <time>2012-08-20T11:06:18Z</time>
      </trkpt>
      <trkpt lat="42.92951" lon="-0.72397">
        <ele>1955.458984</ele>
        <time>2012-08-20T11:06:35Z</time>
      </trkpt>
      <trkpt lat="42.92951" lon="-0.72395">
        <ele>1955.939453</ele>
        <time>2012-08-20T11:06:37Z</time>
      </trkpt>
      <trkpt lat="42.92953" lon="-0.7239">
        <ele>1955.458984</ele>
        <time>2012-08-20T11:06:57Z</time>
      </trkpt>
      <trkpt lat="42.92955" lon="-0.7238">
        <ele>1954.497559</ele>
        <time>2012-08-20T11:07:21Z</time>
      </trkpt>
      <trkpt lat="42.92966" lon="-0.72385">
        <ele>1953.536377</ele>
        <time>2012-08-20T11:07:40Z</time>
      </trkpt>
      <trkpt lat="42.92971" lon="-0.72383">
        <ele>1951.61377</ele>
        <time>2012-08-20T11:07:54Z</time>
      </trkpt>
      <trkpt lat="42.92975" lon="-0.72386">
        <ele>1951.133057</ele>
        <time>2012-08-20T11:08:11Z</time>
      </trkpt>
      <trkpt lat="42.92979" lon="-0.72381">
        <ele>1948.729736</ele>
        <time>2012-08-20T11:08:27Z</time>
      </trkpt>
      <trkpt lat="42.92981" lon="-0.72378">
        <ele>1945.36499</ele>
        <time>2012-08-20T11:08:35Z</time>
      </trkpt>
      <trkpt lat="42.92979" lon="-0.72373">
        <ele>1945.845703</ele>
        <time>2012-08-20T11:08:42Z</time>
      </trkpt>
      <trkpt lat="42.92981" lon="-0.72362">
        <ele>1943.442383</ele>
        <time>2012-08-20T11:08:58Z</time>
      </trkpt>
      <trkpt lat="42.92978" lon="-0.72356">
        <ele>1940.077881</ele>
        <time>2012-08-20T11:09:07Z</time>
      </trkpt>
      <trkpt lat="42.92976" lon="-0.72347">
        <ele>1941.039062</ele>
        <time>2012-08-20T11:09:25Z</time>
      </trkpt>
      <trkpt lat="42.92976" lon="-0.72334">
        <ele>1940.55835</ele>
        <time>2012-08-20T11:09:39Z</time>
      </trkpt>
      <trkpt lat="42.92984" lon="-0.72331">
        <ele>1941.039062</ele>
        <time>2012-08-20T11:09:57Z</time>
      </trkpt>
      <trkpt lat="42.9299" lon="-0.72337">
        <ele>1937.193848</ele>
        <time>2012-08-20T11:10:08Z</time>
      </trkpt>
      <trkpt lat="42.9299" lon="-0.72338">
        <ele>1937.193848</ele>
        <time>2012-08-20T11:10:09Z</time>
      </trkpt>
      <trkpt lat="42.92993" lon="-0.72334">
        <ele>1935.27124</ele>
        <time>2012-08-20T11:10:18Z</time>
      </trkpt>
      <trkpt lat="42.92995" lon="-0.72332">
        <ele>1932.86792</ele>
        <time>2012-08-20T11:10:25Z</time>
      </trkpt>
      <trkpt lat="42.92998" lon="-0.72329">
        <ele>1932.387451</ele>
        <time>2012-08-20T11:10:40Z</time>
      </trkpt>
      <trkpt lat="42.93003" lon="-0.72321">
        <ele>1930.4646</ele>
        <time>2012-08-20T11:10:57Z</time>
      </trkpt>
      <trkpt lat="42.93007" lon="-0.7232">
        <ele>1928.541992</ele>
        <time>2012-08-20T11:11:05Z</time>
      </trkpt>
      <trkpt lat="42.93015" lon="-0.72322">
        <ele>1926.138672</ele>
        <time>2012-08-20T11:11:22Z</time>
      </trkpt>
      <trkpt lat="42.9302" lon="-0.7232">
        <ele>1922.77417</ele>
        <time>2012-08-20T11:11:33Z</time>
      </trkpt>
      <trkpt lat="42.93026" lon="-0.72317">
        <ele>1921.812744</ele>
        <time>2012-08-20T11:11:50Z</time>
      </trkpt>
      <trkpt lat="42.93028" lon="-0.72317">
        <ele>1919.890137</ele>
        <time>2012-08-20T11:11:57Z</time>
      </trkpt>
      <trkpt lat="42.9303" lon="-0.72322">
        <ele>1917.486816</ele>
        <time>2012-08-20T11:12:11Z</time>
      </trkpt>
      <trkpt lat="42.93037" lon="-0.72324">
        <ele>1915.083496</ele>
        <time>2012-08-20T11:12:27Z</time>
      </trkpt>
      <trkpt lat="42.93042" lon="-0.7232">
        <ele>1912.680176</ele>
        <time>2012-08-20T11:12:45Z</time>
      </trkpt>
      <trkpt lat="42.93047" lon="-0.72316">
        <ele>1911.238281</ele>
        <time>2012-08-20T11:13:01Z</time>
      </trkpt>
      <trkpt lat="42.93052" lon="-0.7231">
        <ele>1908.834961</ele>
        <time>2012-08-20T11:13:15Z</time>
      </trkpt>
      <trkpt lat="42.93058" lon="-0.72303">
        <ele>1907.393066</ele>
        <time>2012-08-20T11:13:32Z</time>
      </trkpt>
      <trkpt lat="42.93062" lon="-0.723">
        <ele>1905.950928</ele>
        <time>2012-08-20T11:14:01Z</time>
      </trkpt>
      <trkpt lat="42.93065" lon="-0.72299">
        <ele>1902.586426</ele>
        <time>2012-08-20T11:14:11Z</time>
      </trkpt>
      <trkpt lat="42.93073" lon="-0.72289">
        <ele>1900.18335</ele>
        <time>2012-08-20T11:14:30Z</time>
      </trkpt>
      <trkpt lat="42.93078" lon="-0.72279">
        <ele>1896.818359</ele>
        <time>2012-08-20T11:14:42Z</time>
      </trkpt>
      <trkpt lat="42.93088" lon="-0.7227">
        <ele>1896.337891</ele>
        <time>2012-08-20T11:14:58Z</time>
      </trkpt>
      <trkpt lat="42.93095" lon="-0.72265">
        <ele>1892.973145</ele>
        <time>2012-08-20T11:15:10Z</time>
      </trkpt>
      <trkpt lat="42.93095" lon="-0.72264">
        <ele>1892.492676</ele>
        <time>2012-08-20T11:15:11Z</time>
      </trkpt>
      <trkpt lat="42.93105" lon="-0.7226">
        <ele>1890.089355</ele>
        <time>2012-08-20T11:15:27Z</time>
      </trkpt>
      <trkpt lat="42.93106" lon="-0.7226">
        <ele>1888.647461</ele>
        <time>2012-08-20T11:15:30Z</time>
      </trkpt>
      <trkpt lat="42.93113" lon="-0.72256">
        <ele>1887.205322</ele>
        <time>2012-08-20T11:15:44Z</time>
      </trkpt>
      <trkpt lat="42.9312" lon="-0.72249">
        <ele>1885.282715</ele>
        <time>2012-08-20T11:15:59Z</time>
      </trkpt>
      <trkpt lat="42.93127" lon="-0.72242">
        <ele>1883.840576</ele>
        <time>2012-08-20T11:16:14Z</time>
      </trkpt>
      <trkpt lat="42.93133" lon="-0.72238">
        <ele>1881.917969</ele>
        <time>2012-08-20T11:16:30Z</time>
      </trkpt>
      <trkpt lat="42.93136" lon="-0.72236">
        <ele>1881.917969</ele>
        <time>2012-08-20T11:16:58Z</time>
      </trkpt>
      <trkpt lat="42.93146" lon="-0.72229">
        <ele>1880.476074</ele>
        <time>2012-08-20T11:17:21Z</time>
      </trkpt>
      <trkpt lat="42.93158" lon="-0.72226">
        <ele>1879.033936</ele>
        <time>2012-08-20T11:17:36Z</time>
      </trkpt>
      <trkpt lat="42.93173" lon="-0.72207">
        <ele>1877.111572</ele>
        <time>2012-08-20T11:17:57Z</time>
      </trkpt>
      <trkpt lat="42.93176" lon="-0.72204">
        <ele>1876.630859</ele>
        <time>2012-08-20T11:18:22Z</time>
      </trkpt>
      <trkpt lat="42.93189" lon="-0.72188">
        <ele>1875.669434</ele>
        <time>2012-08-20T11:18:41Z</time>
      </trkpt>
      <trkpt lat="42.93195" lon="-0.72179">
        <ele>1874.227539</ele>
        <time>2012-08-20T11:18:55Z</time>
      </trkpt>
      <trkpt lat="42.932" lon="-0.72171">
        <ele>1873.266357</ele>
        <time>2012-08-20T11:19:03Z</time>
      </trkpt>
      <trkpt lat="42.932" lon="-0.72166">
        <ele>1872.785645</ele>
        <time>2012-08-20T11:19:07Z</time>
      </trkpt>
      <trkpt lat="42.9321" lon="-0.72147">
        <ele>1871.824219</ele>
        <time>2012-08-20T11:19:25Z</time>
      </trkpt>
      <trkpt lat="42.93213" lon="-0.72144">
        <ele>1869.901611</ele>
        <time>2012-08-20T11:19:29Z</time>
      </trkpt>
      <trkpt lat="42.9322" lon="-0.72131">
        <ele>1869.901611</ele>
        <time>2012-08-20T11:19:44Z</time>
      </trkpt>
      <trkpt lat="42.93227" lon="-0.72116">
        <ele>1867.017578</ele>
        <time>2012-08-20T11:20:02Z</time>
      </trkpt>
      <trkpt lat="42.93236" lon="-0.72096">
        <ele>1866.536865</ele>
        <time>2012-08-20T11:20:21Z</time>
      </trkpt>
      <trkpt lat="42.93246" lon="-0.72081">
        <ele>1867.017578</ele>
        <time>2012-08-20T11:20:38Z</time>
      </trkpt>
      <trkpt lat="42.93248" lon="-0.7208">
        <ele>1865.575684</ele>
        <time>2012-08-20T11:20:41Z</time>
      </trkpt>
      <trkpt lat="42.93258" lon="-0.72071">
        <ele>1865.575684</ele>
        <time>2012-08-20T11:20:54Z</time>
      </trkpt>
      <trkpt lat="42.93268" lon="-0.72056">
        <ele>1867.498047</ele>
        <time>2012-08-20T11:21:09Z</time>
      </trkpt>
      <trkpt lat="42.93279" lon="-0.72042">
        <ele>1867.017578</ele>
        <time>2012-08-20T11:21:25Z</time>
      </trkpt>
      <trkpt lat="42.93285" lon="-0.72017">
        <ele>1867.017578</ele>
        <time>2012-08-20T11:21:44Z</time>
      </trkpt>
      <trkpt lat="42.93286" lon="-0.72001">
        <ele>1866.536865</ele>
        <time>2012-08-20T11:21:58Z</time>
      </trkpt>
      <trkpt lat="42.93298" lon="-0.71973">
        <ele>1864.133545</ele>
        <time>2012-08-20T11:22:20Z</time>
      </trkpt>
      <trkpt lat="42.93299" lon="-0.71969">
        <ele>1863.172363</ele>
        <time>2012-08-20T11:22:24Z</time>
      </trkpt>
      <trkpt lat="42.93302" lon="-0.71963">
        <ele>1864.614258</ele>
        <time>2012-08-20T11:22:29Z</time>
      </trkpt>
      <trkpt lat="42.93302" lon="-0.7196">
        <ele>1863.172363</ele>
        <time>2012-08-20T11:22:31Z</time>
      </trkpt>
      <trkpt lat="42.93305" lon="-0.7195">
        <ele>1861.249756</ele>
        <time>2012-08-20T11:22:39Z</time>
      </trkpt>
      <trkpt lat="42.93307" lon="-0.71935">
        <ele>1860.28833</ele>
        <time>2012-08-20T11:22:56Z</time>
      </trkpt>
      <trkpt lat="42.93308" lon="-0.71931">
        <ele>1860.28833</ele>
        <time>2012-08-20T11:23:17Z</time>
      </trkpt>
      <trkpt lat="42.93316" lon="-0.71923">
        <ele>1857.885254</ele>
        <time>2012-08-20T11:23:37Z</time>
      </trkpt>
      <trkpt lat="42.93322" lon="-0.71915">
        <ele>1857.885254</ele>
        <time>2012-08-20T11:23:55Z</time>
      </trkpt>
      <trkpt lat="42.93328" lon="-0.71903">
        <ele>1857.885254</ele>
        <time>2012-08-20T11:24:13Z</time>
      </trkpt>
      <trkpt lat="42.93331" lon="-0.71901">
        <ele>1856.923828</ele>
        <time>2012-08-20T11:24:28Z</time>
      </trkpt>
      <trkpt lat="42.93331" lon="-0.71899">
        <ele>1858.365723</ele>
        <time>2012-08-20T11:24:43Z</time>
      </trkpt>
      <trkpt lat="42.93331" lon="-0.719">
        <ele>1857.404541</ele>
        <time>2012-08-20T11:24:45Z</time>
      </trkpt>
      <trkpt lat="42.93332" lon="-0.71895">
        <ele>1857.404541</ele>
        <time>2012-08-20T11:25:06Z</time>
      </trkpt>
      <trkpt lat="42.93332" lon="-0.71896">
        <ele>1856.443115</ele>
        <time>2012-08-20T11:25:34Z</time>
      </trkpt>
      <trkpt lat="42.93335" lon="-0.71884">
        <ele>1855.962402</ele>
        <time>2012-08-20T11:25:51Z</time>
      </trkpt>
      <trkpt lat="42.9334" lon="-0.71873">
        <ele>1853.078613</ele>
        <time>2012-08-20T11:26:07Z</time>
      </trkpt>
      <trkpt lat="42.93343" lon="-0.71859">
        <ele>1850.675049</ele>
        <time>2012-08-20T11:26:24Z</time>
      </trkpt>
      <trkpt lat="42.93343" lon="-0.7185">
        <ele>1849.233154</ele>
        <time>2012-08-20T11:26:37Z</time>
      </trkpt>
      <trkpt lat="42.93346" lon="-0.71835">
        <ele>1846.829834</ele>
        <time>2012-08-20T11:26:55Z</time>
      </trkpt>
      <trkpt lat="42.93348" lon="-0.71821">
        <ele>1844.426514</ele>
        <time>2012-08-20T11:27:11Z</time>
      </trkpt>
      <trkpt lat="42.93352" lon="-0.71809">
        <ele>1842.023438</ele>
        <time>2012-08-20T11:27:26Z</time>
      </trkpt>
      <trkpt lat="42.9336" lon="-0.71797">
        <ele>1839.620117</ele>
        <time>2012-08-20T11:27:39Z</time>
      </trkpt>
      <trkpt lat="42.93361" lon="-0.71791">
        <ele>1840.10083</ele>
        <time>2012-08-20T11:27:45Z</time>
      </trkpt>
      <trkpt lat="42.93361" lon="-0.71786">
        <ele>1840.10083</ele>
        <time>2012-08-20T11:27:49Z</time>
      </trkpt>
      <trkpt lat="42.93364" lon="-0.71779">
        <ele>1839.620117</ele>
        <time>2012-08-20T11:27:56Z</time>
      </trkpt>
      <trkpt lat="42.93367" lon="-0.71771">
        <ele>1838.658936</ele>
        <time>2012-08-20T11:28:03Z</time>
      </trkpt>
      <trkpt lat="42.93368" lon="-0.71769">
        <ele>1837.69751</ele>
        <time>2012-08-20T11:28:05Z</time>
      </trkpt>
      <trkpt lat="42.93371" lon="-0.71758">
        <ele>1837.69751</ele>
        <time>2012-08-20T11:28:15Z</time>
      </trkpt>
      <trkpt lat="42.93378" lon="-0.71741">
        <ele>1833.852051</ele>
        <time>2012-08-20T11:28:31Z</time>
      </trkpt>
      <trkpt lat="42.93381" lon="-0.71724">
        <ele>1832.890625</ele>
        <time>2012-08-20T11:28:48Z</time>
      </trkpt>
      <trkpt lat="42.93384" lon="-0.71723">
        <ele>1832.410156</ele>
        <time>2012-08-20T11:28:52Z</time>
      </trkpt>
      <trkpt lat="42.93394" lon="-0.71703">
        <ele>1831.929443</ele>
        <time>2012-08-20T11:29:12Z</time>
      </trkpt>
      <trkpt lat="42.93398" lon="-0.71691">
        <ele>1830.968262</ele>
        <time>2012-08-20T11:29:25Z</time>
      </trkpt>
      <trkpt lat="42.93393" lon="-0.71688">
        <ele>1830.968262</ele>
        <time>2012-08-20T11:29:32Z</time>
      </trkpt>
      <trkpt lat="42.9339" lon="-0.71684">
        <ele>1830.487549</ele>
        <time>2012-08-20T11:29:37Z</time>
      </trkpt>
      <trkpt lat="42.9339" lon="-0.71671">
        <ele>1830.487549</ele>
        <time>2012-08-20T11:29:50Z</time>
      </trkpt>
      <trkpt lat="42.93396" lon="-0.71657">
        <ele>1830.487549</ele>
        <time>2012-08-20T11:30:04Z</time>
      </trkpt>
      <trkpt lat="42.93401" lon="-0.71652">
        <ele>1829.526123</ele>
        <time>2012-08-20T11:30:14Z</time>
      </trkpt>
      <trkpt lat="42.9341" lon="-0.7164">
        <ele>1830.006836</ele>
        <time>2012-08-20T11:30:28Z</time>
      </trkpt>
      <trkpt lat="42.93418" lon="-0.71624">
        <ele>1829.04541</ele>
        <time>2012-08-20T11:30:42Z</time>
      </trkpt>
      <trkpt lat="42.93426" lon="-0.71611">
        <ele>1828.564941</ele>
        <time>2012-08-20T11:30:56Z</time>
      </trkpt>
      <trkpt lat="42.93431" lon="-0.71597">
        <ele>1828.084229</ele>
        <time>2012-08-20T11:31:11Z</time>
      </trkpt>
      <trkpt lat="42.93435" lon="-0.71594">
        <ele>1828.564941</ele>
        <time>2012-08-20T11:31:17Z</time>
      </trkpt>
      <trkpt lat="42.93445" lon="-0.71581">
        <ele>1829.04541</ele>
        <time>2012-08-20T11:31:33Z</time>
      </trkpt>
      <trkpt lat="42.93453" lon="-0.71566">
        <ele>1827.123047</ele>
        <time>2012-08-20T11:31:49Z</time>
      </trkpt>
      <trkpt lat="42.93471" lon="-0.7156">
        <ele>1827.603516</ele>
        <time>2012-08-20T11:32:07Z</time>
      </trkpt>
      <trkpt lat="42.93484" lon="-0.71551">
        <ele>1828.564941</ele>
        <time>2012-08-20T11:32:21Z</time>
      </trkpt>
      <trkpt lat="42.93493" lon="-0.71536">
        <ele>1825.200195</ele>
        <time>2012-08-20T11:32:37Z</time>
      </trkpt>
      <trkpt lat="42.93504" lon="-0.71518">
        <ele>1824.239014</ele>
        <time>2012-08-20T11:32:53Z</time>
      </trkpt>
      <trkpt lat="42.93512" lon="-0.71502">
        <ele>1823.277832</ele>
        <time>2012-08-20T11:33:08Z</time>
      </trkpt>
      <trkpt lat="42.93519" lon="-0.71492">
        <ele>1822.797119</ele>
        <time>2012-08-20T11:33:23Z</time>
      </trkpt>
      <trkpt lat="42.93525" lon="-0.71478">
        <ele>1823.277832</ele>
        <time>2012-08-20T11:33:38Z</time>
      </trkpt>
      <trkpt lat="42.93527" lon="-0.71465">
        <ele>1821.35498</ele>
        <time>2012-08-20T11:33:53Z</time>
      </trkpt>
      <trkpt lat="42.93533" lon="-0.71449">
        <ele>1820.393799</ele>
        <time>2012-08-20T11:34:09Z</time>
      </trkpt>
      <trkpt lat="42.93538" lon="-0.71438">
        <ele>1818.95166</ele>
        <time>2012-08-20T11:34:23Z</time>
      </trkpt>
      <trkpt lat="42.93542" lon="-0.7142">
        <ele>1818.470947</ele>
        <time>2012-08-20T11:34:40Z</time>
      </trkpt>
      <trkpt lat="42.93544" lon="-0.71416">
        <ele>1817.990234</ele>
        <time>2012-08-20T11:34:44Z</time>
      </trkpt>
      <trkpt lat="42.93542" lon="-0.71407">
        <ele>1817.990234</ele>
        <time>2012-08-20T11:35:01Z</time>
      </trkpt>
      <trkpt lat="42.93542" lon="-0.714">
        <ele>1816.54834</ele>
        <time>2012-08-20T11:35:17Z</time>
      </trkpt>
      <trkpt lat="42.93542" lon="-0.714">
        <ele>1816.54834</ele>
        <time>2012-08-20T11:35:58Z</time>
      </trkpt>
      <trkpt lat="42.93546" lon="-0.71396">
        <ele>1813.664307</ele>
        <time>2012-08-20T11:36:44Z</time>
      </trkpt>
      <trkpt lat="42.93546" lon="-0.71379">
        <ele>1811.26123</ele>
        <time>2012-08-20T11:37:02Z</time>
      </trkpt>
      <trkpt lat="42.9355" lon="-0.71365">
        <ele>1810.299805</ele>
        <time>2012-08-20T11:37:20Z</time>
      </trkpt>
      <trkpt lat="42.93551" lon="-0.71355">
        <ele>1806.935303</ele>
        <time>2012-08-20T11:37:34Z</time>
      </trkpt>
      <trkpt lat="42.93553" lon="-0.71347">
        <ele>1804.531982</ele>
        <time>2012-08-20T11:37:53Z</time>
      </trkpt>
      <trkpt lat="42.9355" lon="-0.71339">
        <ele>1800.686523</ele>
        <time>2012-08-20T11:38:08Z</time>
      </trkpt>
      <trkpt lat="42.93549" lon="-0.71334">
        <ele>1797.802734</ele>
        <time>2012-08-20T11:38:20Z</time>
      </trkpt>
      <trkpt lat="42.93547" lon="-0.71325">
        <ele>1794.918701</ele>
        <time>2012-08-20T11:38:36Z</time>
      </trkpt>
      <trkpt lat="42.93546" lon="-0.71317">
        <ele>1792.034912</ele>
        <time>2012-08-20T11:38:50Z</time>
      </trkpt>
      <trkpt lat="42.93544" lon="-0.71306">
        <ele>1789.150879</ele>
        <time>2012-08-20T11:39:04Z</time>
      </trkpt>
      <trkpt lat="42.93543" lon="-0.71297">
        <ele>1785.786133</ele>
        <time>2012-08-20T11:39:17Z</time>
      </trkpt>
      <trkpt lat="42.93546" lon="-0.71286">
        <ele>1782.9021</ele>
        <time>2012-08-20T11:39:32Z</time>
      </trkpt>
      <trkpt lat="42.93551" lon="-0.71274">
        <ele>1780.499023</ele>
        <time>2012-08-20T11:39:48Z</time>
      </trkpt>
      <trkpt lat="42.93559" lon="-0.71269">
        <ele>1778.576416</ele>
        <time>2012-08-20T11:40:01Z</time>
      </trkpt>
      <trkpt lat="42.9356" lon="-0.71263">
        <ele>1776.653809</ele>
        <time>2012-08-20T11:40:07Z</time>
      </trkpt>
      <trkpt lat="42.93558" lon="-0.71258">
        <ele>1776.173096</ele>
        <time>2012-08-20T11:40:12Z</time>
      </trkpt>
      <trkpt lat="42.93564" lon="-0.71242">
        <ele>1774.731201</ele>
        <time>2012-08-20T11:40:31Z</time>
      </trkpt>
      <trkpt lat="42.93568" lon="-0.71234">
        <ele>1773.769775</ele>
        <time>2012-08-20T11:40:46Z</time>
      </trkpt>
      <trkpt lat="42.93577" lon="-0.71224">
        <ele>1772.327881</ele>
        <time>2012-08-20T11:41:02Z</time>
      </trkpt>
      <trkpt lat="42.93579" lon="-0.71214">
        <ele>1771.366211</ele>
        <time>2012-08-20T11:41:16Z</time>
      </trkpt>
      <trkpt lat="42.93584" lon="-0.71201">
        <ele>1770.405029</ele>
        <time>2012-08-20T11:41:31Z</time>
      </trkpt>
      <trkpt lat="42.93585" lon="-0.71189">
        <ele>1767.520996</ele>
        <time>2012-08-20T11:41:46Z</time>
      </trkpt>
      <trkpt lat="42.93583" lon="-0.71182">
        <ele>1764.637207</ele>
        <time>2012-08-20T11:41:54Z</time>
      </trkpt>
      <trkpt lat="42.93579" lon="-0.7117">
        <ele>1762.7146</ele>
        <time>2012-08-20T11:42:10Z</time>
      </trkpt>
      <trkpt lat="42.93576" lon="-0.71154">
        <ele>1759.830566</ele>
        <time>2012-08-20T11:42:28Z</time>
      </trkpt>
      <trkpt lat="42.93575" lon="-0.71135">
        <ele>1757.42749</ele>
        <time>2012-08-20T11:42:45Z</time>
      </trkpt>
      <trkpt lat="42.93572" lon="-0.7112">
        <ele>1754.062744</ele>
        <time>2012-08-20T11:42:59Z</time>
      </trkpt>
      <trkpt lat="42.93571" lon="-0.71109">
        <ele>1751.178711</ele>
        <time>2012-08-20T11:43:10Z</time>
      </trkpt>
      <trkpt lat="42.93574" lon="-0.71091">
        <ele>1749.736816</ele>
        <time>2012-08-20T11:43:27Z</time>
      </trkpt>
      <trkpt lat="42.93578" lon="-0.71078">
        <ele>1747.333496</ele>
        <time>2012-08-20T11:43:44Z</time>
      </trkpt>
      <trkpt lat="42.93583" lon="-0.71064">
        <ele>1743.968994</ele>
        <time>2012-08-20T11:43:57Z</time>
      </trkpt>
      <trkpt lat="42.93583" lon="-0.71062">
        <ele>1744.449463</ele>
        <time>2012-08-20T11:43:58Z</time>
      </trkpt>
      <trkpt lat="42.93585" lon="-0.71048">
        <ele>1743.007568</ele>
        <time>2012-08-20T11:44:11Z</time>
      </trkpt>
      <trkpt lat="42.93586" lon="-0.7104">
        <ele>1740.123779</ele>
        <time>2012-08-20T11:44:18Z</time>
      </trkpt>
      <trkpt lat="42.93586" lon="-0.7103">
        <ele>1736.27832</ele>
        <time>2012-08-20T11:44:29Z</time>
      </trkpt>
      <trkpt lat="42.93586" lon="-0.71029">
        <ele>1736.27832</ele>
        <time>2012-08-20T11:44:30Z</time>
      </trkpt>
      <trkpt lat="42.93585" lon="-0.71022">
        <ele>1736.27832</ele>
        <time>2012-08-20T11:44:36Z</time>
      </trkpt>
      <trkpt lat="42.93586" lon="-0.71012">
        <ele>1735.797607</ele>
        <time>2012-08-20T11:44:44Z</time>
      </trkpt>
      <trkpt lat="42.93595" lon="-0.70997">
        <ele>1732.913574</ele>
        <time>2012-08-20T11:45:02Z</time>
      </trkpt>
      <trkpt lat="42.93604" lon="-0.7098">
        <ele>1730.991211</ele>
        <time>2012-08-20T11:45:21Z</time>
      </trkpt>
      <trkpt lat="42.93613" lon="-0.70967">
        <ele>1728.107178</ele>
        <time>2012-08-20T11:45:36Z</time>
      </trkpt>
      <trkpt lat="42.93616" lon="-0.70957">
        <ele>1725.223145</ele>
        <time>2012-08-20T11:45:46Z</time>
      </trkpt>
      <trkpt lat="42.9362" lon="-0.70947">
        <ele>1723.781006</ele>
        <time>2012-08-20T11:45:54Z</time>
      </trkpt>
      <trkpt lat="42.93621" lon="-0.70945">
        <ele>1723.781006</ele>
        <time>2012-08-20T11:45:56Z</time>
      </trkpt>
      <trkpt lat="42.93624" lon="-0.70926">
        <ele>1720.416504</ele>
        <time>2012-08-20T11:46:12Z</time>
      </trkpt>
      <trkpt lat="42.93624" lon="-0.70925">
        <ele>1720.416504</ele>
        <time>2012-08-20T11:46:13Z</time>
      </trkpt>
      <trkpt lat="42.93628" lon="-0.70903">
        <ele>1717.052002</ele>
        <time>2012-08-20T11:46:31Z</time>
      </trkpt>
      <trkpt lat="42.93631" lon="-0.70891">
        <ele>1714.648682</ele>
        <time>2012-08-20T11:46:43Z</time>
      </trkpt>
      <trkpt lat="42.93636" lon="-0.70871">
        <ele>1712.245361</ele>
        <time>2012-08-20T11:47:00Z</time>
      </trkpt>
      <trkpt lat="42.93637" lon="-0.70861">
        <ele>1712.726074</ele>
        <time>2012-08-20T11:47:15Z</time>
      </trkpt>
      <trkpt lat="42.93638" lon="-0.70847">
        <ele>1710.322754</ele>
        <time>2012-08-20T11:47:30Z</time>
      </trkpt>
      <trkpt lat="42.9364" lon="-0.70843">
        <ele>1709.361572</ele>
        <time>2012-08-20T11:47:34Z</time>
      </trkpt>
      <trkpt lat="42.93646" lon="-0.70824">
        <ele>1706.477295</ele>
        <time>2012-08-20T11:47:49Z</time>
      </trkpt>
      <trkpt lat="42.93648" lon="-0.70806">
        <ele>1703.593506</ele>
        <time>2012-08-20T11:48:03Z</time>
      </trkpt>
      <trkpt lat="42.93649" lon="-0.70797">
        <ele>1703.112793</ele>
        <time>2012-08-20T11:48:10Z</time>
      </trkpt>
      <trkpt lat="42.93651" lon="-0.70772">
        <ele>1699.267578</ele>
        <time>2012-08-20T11:48:28Z</time>
      </trkpt>
      <trkpt lat="42.93652" lon="-0.70764">
        <ele>1697.825684</ele>
        <time>2012-08-20T11:48:36Z</time>
      </trkpt>
      <trkpt lat="42.93655" lon="-0.70745">
        <ele>1697.825684</ele>
        <time>2012-08-20T11:48:53Z</time>
      </trkpt>
      <trkpt lat="42.93656" lon="-0.70731">
        <ele>1694.460938</ele>
        <time>2012-08-20T11:49:06Z</time>
      </trkpt>
      <trkpt lat="42.93656" lon="-0.70722">
        <ele>1693.019043</ele>
        <time>2012-08-20T11:49:15Z</time>
      </trkpt>
      <trkpt lat="42.93656" lon="-0.70719">
        <ele>1693.019043</ele>
        <time>2012-08-20T11:49:17Z</time>
      </trkpt>
      <trkpt lat="42.93659" lon="-0.70701">
        <ele>1691.576904</ele>
        <time>2012-08-20T11:49:32Z</time>
      </trkpt>
      <trkpt lat="42.93661" lon="-0.70684">
        <ele>1688.693115</ele>
        <time>2012-08-20T11:49:48Z</time>
      </trkpt>
      <trkpt lat="42.93666" lon="-0.70672">
        <ele>1685.809082</ele>
        <time>2012-08-20T11:50:02Z</time>
      </trkpt>
      <trkpt lat="42.93669" lon="-0.70656">
        <ele>1682.44458</ele>
        <time>2012-08-20T11:50:14Z</time>
      </trkpt>
      <trkpt lat="42.93675" lon="-0.70641">
        <ele>1679.079834</ele>
        <time>2012-08-20T11:50:29Z</time>
      </trkpt>
      <trkpt lat="42.93683" lon="-0.70623">
        <ele>1675.715088</ele>
        <time>2012-08-20T11:50:45Z</time>
      </trkpt>
      <trkpt lat="42.93695" lon="-0.70605">
        <ele>1672.831299</ele>
        <time>2012-08-20T11:51:05Z</time>
      </trkpt>
      <trkpt lat="42.93697" lon="-0.70604">
        <ele>1671.869873</ele>
        <time>2012-08-20T11:51:07Z</time>
      </trkpt>
      <trkpt lat="42.93709" lon="-0.70589">
        <ele>1668.986084</ele>
        <time>2012-08-20T11:51:25Z</time>
      </trkpt>
      <trkpt lat="42.93721" lon="-0.70572">
        <ele>1666.102051</ele>
        <time>2012-08-20T11:51:43Z</time>
      </trkpt>
      <trkpt lat="42.93722" lon="-0.7057">
        <ele>1664.660156</ele>
        <time>2012-08-20T11:51:45Z</time>
      </trkpt>
      <trkpt lat="42.93728" lon="-0.70562">
        <ele>1663.218262</ele>
        <time>2012-08-20T11:52:02Z</time>
      </trkpt>
      <trkpt lat="42.93733" lon="-0.70555">
        <ele>1662.737549</ele>
        <time>2012-08-20T11:52:16Z</time>
      </trkpt>
      <trkpt lat="42.93736" lon="-0.70551">
        <ele>1659.372803</ele>
        <time>2012-08-20T11:52:24Z</time>
      </trkpt>
      <trkpt lat="42.9374" lon="-0.70545">
        <ele>1656.48877</ele>
        <time>2012-08-20T11:52:32Z</time>
      </trkpt>
      <trkpt lat="42.93742" lon="-0.70542">
        <ele>1655.046875</ele>
        <time>2012-08-20T11:52:36Z</time>
      </trkpt>
      <trkpt lat="42.93744" lon="-0.70536">
        <ele>1652.643555</ele>
        <time>2012-08-20T11:52:43Z</time>
      </trkpt>
      <trkpt lat="42.93744" lon="-0.70522">
        <ele>1650.240479</ele>
        <time>2012-08-20T11:52:59Z</time>
      </trkpt>
      <trkpt lat="42.93746" lon="-0.70516">
        <ele>1648.79834</ele>
        <time>2012-08-20T11:53:07Z</time>
      </trkpt>
      <trkpt lat="42.93749" lon="-0.70505">
        <ele>1645.433838</ele>
        <time>2012-08-20T11:53:19Z</time>
      </trkpt>
      <trkpt lat="42.93752" lon="-0.70501">
        <ele>1644.472412</ele>
        <time>2012-08-20T11:53:23Z</time>
      </trkpt>
      <trkpt lat="42.93757" lon="-0.70482">
        <ele>1641.107666</ele>
        <time>2012-08-20T11:53:36Z</time>
      </trkpt>
      <trkpt lat="42.93765" lon="-0.70452">
        <ele>1637.743164</ele>
        <time>2012-08-20T11:53:56Z</time>
      </trkpt>
      <trkpt lat="42.93766" lon="-0.70444">
        <ele>1637.262451</ele>
        <time>2012-08-20T11:54:02Z</time>
      </trkpt>
      <trkpt lat="42.93775" lon="-0.70432">
        <ele>1634.859375</ele>
        <time>2012-08-20T11:54:20Z</time>
      </trkpt>
      <trkpt lat="42.93781" lon="-0.7043">
        <ele>1631.494629</ele>
        <time>2012-08-20T11:54:32Z</time>
      </trkpt>
      <trkpt lat="42.93786" lon="-0.7042">
        <ele>1627.64917</ele>
        <time>2012-08-20T11:54:44Z</time>
      </trkpt>
      <trkpt lat="42.93787" lon="-0.70418">
        <ele>1626.687988</ele>
        <time>2012-08-20T11:54:46Z</time>
      </trkpt>
      <trkpt lat="42.93788" lon="-0.70406">
        <ele>1623.803955</ele>
        <time>2012-08-20T11:55:01Z</time>
      </trkpt>
      <trkpt lat="42.93788" lon="-0.70401">
        <ele>1622.842773</ele>
        <time>2012-08-20T11:55:11Z</time>
      </trkpt>
      <trkpt lat="42.93791" lon="-0.70387">
        <ele>1618.997559</ele>
        <time>2012-08-20T11:55:24Z</time>
      </trkpt>
      <trkpt lat="42.93791" lon="-0.70377">
        <ele>1616.113525</ele>
        <time>2012-08-20T11:55:34Z</time>
      </trkpt>
      <trkpt lat="42.93791" lon="-0.70375">
        <ele>1618.036133</ele>
        <time>2012-08-20T11:55:37Z</time>
      </trkpt>
      <trkpt lat="42.93794" lon="-0.7037">
        <ele>1614.671631</ele>
        <time>2012-08-20T11:55:45Z</time>
      </trkpt>
      <trkpt lat="42.93797" lon="-0.70358">
        <ele>1611.787598</ele>
        <time>2012-08-20T11:56:00Z</time>
      </trkpt>
      <trkpt lat="42.93798" lon="-0.70354">
        <ele>1610.826172</ele>
        <time>2012-08-20T11:56:04Z</time>
      </trkpt>
      <trkpt lat="42.93799" lon="-0.70344">
        <ele>1607.46167</ele>
        <time>2012-08-20T11:56:19Z</time>
      </trkpt>
      <trkpt lat="42.93799" lon="-0.70342">
        <ele>1607.46167</ele>
        <time>2012-08-20T11:56:20Z</time>
      </trkpt>
      <trkpt lat="42.93797" lon="-0.70325">
        <ele>1605.539062</ele>
        <time>2012-08-20T11:56:38Z</time>
      </trkpt>
      <trkpt lat="42.93796" lon="-0.70314">
        <ele>1601.693848</ele>
        <time>2012-08-20T11:56:52Z</time>
      </trkpt>
      <trkpt lat="42.93797" lon="-0.70303">
        <ele>1599.77124</ele>
        <time>2012-08-20T11:57:07Z</time>
      </trkpt>
      <trkpt lat="42.93799" lon="-0.703">
        <ele>1599.290527</ele>
        <time>2012-08-20T11:57:10Z</time>
      </trkpt>
      <trkpt lat="42.93802" lon="-0.70295">
        <ele>1598.329102</ele>
        <time>2012-08-20T11:57:16Z</time>
      </trkpt>
      <trkpt lat="42.93814" lon="-0.70285">
        <ele>1595.445068</ele>
        <time>2012-08-20T11:57:34Z</time>
      </trkpt>
      <trkpt lat="42.93818" lon="-0.70279">
        <ele>1592.080566</ele>
        <time>2012-08-20T11:57:45Z</time>
      </trkpt>
      <trkpt lat="42.93821" lon="-0.70275">
        <ele>1590.157959</ele>
        <time>2012-08-20T11:57:50Z</time>
      </trkpt>
      <trkpt lat="42.9383" lon="-0.70263">
        <ele>1587.273926</ele>
        <time>2012-08-20T11:58:06Z</time>
      </trkpt>
      <trkpt lat="42.93844" lon="-0.70247">
        <ele>1585.351318</ele>
        <time>2012-08-20T11:58:24Z</time>
      </trkpt>
      <trkpt lat="42.93846" lon="-0.70242">
        <ele>1583.909424</ele>
        <time>2012-08-20T11:58:43Z</time>
      </trkpt>
      <trkpt lat="42.93847" lon="-0.70239">
        <ele>1582.467529</ele>
        <time>2012-08-20T11:58:48Z</time>
      </trkpt>
      <trkpt lat="42.93851" lon="-0.70216">
        <ele>1580.544922</ele>
        <time>2012-08-20T11:59:06Z</time>
      </trkpt>
      <trkpt lat="42.93851" lon="-0.70207">
        <ele>1579.102539</ele>
        <time>2012-08-20T11:59:13Z</time>
      </trkpt>
      <trkpt lat="42.93848" lon="-0.70196">
        <ele>1575.738037</ele>
        <time>2012-08-20T11:59:28Z</time>
      </trkpt>
      <trkpt lat="42.93844" lon="-0.70187">
        <ele>1575.257324</ele>
        <time>2012-08-20T11:59:42Z</time>
      </trkpt>
      <trkpt lat="42.93844" lon="-0.70177">
        <ele>1571.892822</ele>
        <time>2012-08-20T11:59:54Z</time>
      </trkpt>
      <trkpt lat="42.93844" lon="-0.70175">
        <ele>1570.931641</ele>
        <time>2012-08-20T11:59:56Z</time>
      </trkpt>
      <trkpt lat="42.93842" lon="-0.70166">
        <ele>1568.52832</ele>
        <time>2012-08-20T12:00:06Z</time>
      </trkpt>
      <trkpt lat="42.93838" lon="-0.70151">
        <ele>1566.605713</ele>
        <time>2012-08-20T12:00:21Z</time>
      </trkpt>
      <trkpt lat="42.93838" lon="-0.7015">
        <ele>1566.605713</ele>
        <time>2012-08-20T12:00:22Z</time>
      </trkpt>
      <trkpt lat="42.9384" lon="-0.70145">
        <ele>1566.125</ele>
        <time>2012-08-20T12:00:26Z</time>
      </trkpt>
      <trkpt lat="42.93851" lon="-0.7012">
        <ele>1564.202393</ele>
        <time>2012-08-20T12:00:45Z</time>
      </trkpt>
      <trkpt lat="42.93861" lon="-0.70102">
        <ele>1562.279541</ele>
        <time>2012-08-20T12:01:03Z</time>
      </trkpt>
      <trkpt lat="42.93863" lon="-0.70097">
        <ele>1559.395752</ele>
        <time>2012-08-20T12:01:08Z</time>
      </trkpt>
      <trkpt lat="42.9387" lon="-0.70074">
        <ele>1555.550537</ele>
        <time>2012-08-20T12:01:26Z</time>
      </trkpt>
      <trkpt lat="42.93877" lon="-0.70052">
        <ele>1553.147217</ele>
        <time>2012-08-20T12:01:43Z</time>
      </trkpt>
      <trkpt lat="42.93883" lon="-0.70037">
        <ele>1550.743896</ele>
        <time>2012-08-20T12:01:55Z</time>
      </trkpt>
      <trkpt lat="42.93885" lon="-0.70014">
        <ele>1548.340576</ele>
        <time>2012-08-20T12:02:12Z</time>
      </trkpt>
      <trkpt lat="42.93892" lon="-0.7">
        <ele>1547.37915</ele>
        <time>2012-08-20T12:02:29Z</time>
      </trkpt>
      <trkpt lat="42.93896" lon="-0.69988">
        <ele>1544.97583</ele>
        <time>2012-08-20T12:02:43Z</time>
      </trkpt>
      <trkpt lat="42.93899" lon="-0.69973">
        <ele>1543.053223</ele>
        <time>2012-08-20T12:02:57Z</time>
      </trkpt>
      <trkpt lat="42.939" lon="-0.69971">
        <ele>1542.572754</ele>
        <time>2012-08-20T12:02:59Z</time>
      </trkpt>
      <trkpt lat="42.93904" lon="-0.69955">
        <ele>1540.169434</ele>
        <time>2012-08-20T12:03:15Z</time>
      </trkpt>
      <trkpt lat="42.93906" lon="-0.6995">
        <ele>1539.688721</ele>
        <time>2012-08-20T12:03:21Z</time>
      </trkpt>
      <trkpt lat="42.93914" lon="-0.69944">
        <ele>1539.688721</ele>
        <time>2012-08-20T12:03:37Z</time>
      </trkpt>
      <trkpt lat="42.93921" lon="-0.69945">
        <ele>1538.246826</ele>
        <time>2012-08-20T12:03:49Z</time>
      </trkpt>
      <trkpt lat="42.9393" lon="-0.69939">
        <ele>1536.324219</ele>
        <time>2012-08-20T12:04:04Z</time>
      </trkpt>
      <trkpt lat="42.9393" lon="-0.69939">
        <ele>1535.843506</ele>
        <time>2012-08-20T12:04:05Z</time>
      </trkpt>
      <trkpt lat="42.93936" lon="-0.69921">
        <ele>1532.959473</ele>
        <time>2012-08-20T12:04:23Z</time>
      </trkpt>
      <trkpt lat="42.93937" lon="-0.6992">
        <ele>1532.479004</ele>
        <time>2012-08-20T12:04:25Z</time>
      </trkpt>
      <trkpt lat="42.93946" lon="-0.6991">
        <ele>1531.036865</ele>
        <time>2012-08-20T12:04:35Z</time>
      </trkpt>
      <trkpt lat="42.93954" lon="-0.69888">
        <ele>1529.114014</ele>
        <time>2012-08-20T12:04:52Z</time>
      </trkpt>
      <trkpt lat="42.93958" lon="-0.69864">
        <ele>1525.749512</ele>
        <time>2012-08-20T12:05:08Z</time>
      </trkpt>
      <trkpt lat="42.93961" lon="-0.69855">
        <ele>1526.710938</ele>
        <time>2012-08-20T12:05:19Z</time>
      </trkpt>
      <trkpt lat="42.93976" lon="-0.69842">
        <ele>1525.749512</ele>
        <time>2012-08-20T12:05:36Z</time>
      </trkpt>
      <trkpt lat="42.93978" lon="-0.69839">
        <ele>1524.78833</ele>
        <time>2012-08-20T12:05:39Z</time>
      </trkpt>
      <trkpt lat="42.93989" lon="-0.69811">
        <ele>1524.78833</ele>
        <time>2012-08-20T12:05:59Z</time>
      </trkpt>
      <trkpt lat="42.93988" lon="-0.69803">
        <ele>1524.78833</ele>
        <time>2012-08-20T12:06:05Z</time>
      </trkpt>
      <trkpt lat="42.93993" lon="-0.69781">
        <ele>1525.268799</ele>
        <time>2012-08-20T12:06:21Z</time>
      </trkpt>
      <trkpt lat="42.94" lon="-0.6976">
        <ele>1525.268799</ele>
        <time>2012-08-20T12:06:36Z</time>
      </trkpt>
      <trkpt lat="42.94002" lon="-0.69759">
        <ele>1524.78833</ele>
        <time>2012-08-20T12:06:38Z</time>
      </trkpt>
      <trkpt lat="42.94008" lon="-0.69743">
        <ele>1523.826904</ele>
        <time>2012-08-20T12:06:53Z</time>
      </trkpt>
      <trkpt lat="42.94013" lon="-0.69735">
        <ele>1523.826904</ele>
        <time>2012-08-20T12:07:08Z</time>
      </trkpt>
      <trkpt lat="42.94024" lon="-0.69719">
        <ele>1521.423584</ele>
        <time>2012-08-20T12:07:23Z</time>
      </trkpt>
      <trkpt lat="42.94025" lon="-0.69716">
        <ele>1520.943115</ele>
        <time>2012-08-20T12:07:25Z</time>
      </trkpt>
      <trkpt lat="42.94028" lon="-0.69704">
        <ele>1520.462402</ele>
        <time>2012-08-20T12:07:34Z</time>
      </trkpt>
      <trkpt lat="42.94028" lon="-0.69701">
        <ele>1519.501221</ele>
        <time>2012-08-20T12:07:37Z</time>
      </trkpt>
      <trkpt lat="42.94032" lon="-0.69686">
        <ele>1519.020508</ele>
        <time>2012-08-20T12:07:48Z</time>
      </trkpt>
      <trkpt lat="42.94036" lon="-0.69676">
        <ele>1518.059082</ele>
        <time>2012-08-20T12:07:56Z</time>
      </trkpt>
      <trkpt lat="42.94041" lon="-0.69657">
        <ele>1515.655762</ele>
        <time>2012-08-20T12:08:10Z</time>
      </trkpt>
      <trkpt lat="42.94044" lon="-0.69648">
        <ele>1513.73291</ele>
        <time>2012-08-20T12:08:22Z</time>
      </trkpt>
      <trkpt lat="42.94043" lon="-0.69635">
        <ele>1511.810547</ele>
        <time>2012-08-20T12:08:36Z</time>
      </trkpt>
      <trkpt lat="42.94045" lon="-0.69629">
        <ele>1508.926514</ele>
        <time>2012-08-20T12:08:46Z</time>
      </trkpt>
      <trkpt lat="42.94048" lon="-0.69621">
        <ele>1507.484619</ele>
        <time>2012-08-20T12:08:55Z</time>
      </trkpt>
      <trkpt lat="42.94049" lon="-0.6961">
        <ele>1506.04248</ele>
        <time>2012-08-20T12:09:09Z</time>
      </trkpt>
      <trkpt lat="42.94049" lon="-0.69598">
        <ele>1503.639404</ele>
        <time>2012-08-20T12:09:22Z</time>
      </trkpt>
      <trkpt lat="42.9405" lon="-0.69589">
        <ele>1500.274902</ele>
        <time>2012-08-20T12:09:34Z</time>
      </trkpt>
      <trkpt lat="42.9405" lon="-0.69578">
        <ele>1497.871338</ele>
        <time>2012-08-20T12:09:45Z</time>
      </trkpt>
      <trkpt lat="42.94049" lon="-0.69575">
        <ele>1497.871338</ele>
        <time>2012-08-20T12:09:48Z</time>
      </trkpt>
      <trkpt lat="42.94053" lon="-0.69546">
        <ele>1496.429443</ele>
        <time>2012-08-20T12:10:08Z</time>
      </trkpt>
      <trkpt lat="42.9405" lon="-0.69516">
        <ele>1495.468018</ele>
        <time>2012-08-20T12:10:26Z</time>
      </trkpt>
      <trkpt lat="42.94042" lon="-0.69486">
        <ele>1494.506592</ele>
        <time>2012-08-20T12:10:46Z</time>
      </trkpt>
      <trkpt lat="42.94038" lon="-0.6948">
        <ele>1494.506592</ele>
        <time>2012-08-20T12:10:51Z</time>
      </trkpt>
      <trkpt lat="42.94032" lon="-0.69476">
        <ele>1493.54541</ele>
        <time>2012-08-20T12:10:57Z</time>
      </trkpt>
      <trkpt lat="42.94029" lon="-0.69471">
        <ele>1493.54541</ele>
        <time>2012-08-20T12:11:01Z</time>
      </trkpt>
      <trkpt lat="42.94028" lon="-0.69444">
        <ele>1493.54541</ele>
        <time>2012-08-20T12:11:21Z</time>
      </trkpt>
      <trkpt lat="42.94026" lon="-0.69433">
        <ele>1492.103516</ele>
        <time>2012-08-20T12:11:31Z</time>
      </trkpt>
      <trkpt lat="42.94026" lon="-0.69421">
        <ele>1491.14209</ele>
        <time>2012-08-20T12:11:44Z</time>
      </trkpt>
      <trkpt lat="42.94028" lon="-0.69413">
        <ele>1488.258301</ele>
        <time>2012-08-20T12:11:54Z</time>
      </trkpt>
      <trkpt lat="42.94029" lon="-0.69409">
        <ele>1486.816162</ele>
        <time>2012-08-20T12:11:58Z</time>
      </trkpt>
      <trkpt lat="42.9403" lon="-0.69398">
        <ele>1484.893799</ele>
        <time>2012-08-20T12:12:12Z</time>
      </trkpt>
      <trkpt lat="42.94029" lon="-0.69388">
        <ele>1482.970703</ele>
        <time>2012-08-20T12:12:28Z</time>
      </trkpt>
      <trkpt lat="42.94029" lon="-0.69377">
        <ele>1481.528809</ele>
        <time>2012-08-20T12:12:37Z</time>
      </trkpt>
      <trkpt lat="42.94032" lon="-0.69357">
        <ele>1477.683594</ele>
        <time>2012-08-20T12:12:56Z</time>
      </trkpt>
      <trkpt lat="42.94034" lon="-0.69349">
        <ele>1474.799805</ele>
        <time>2012-08-20T12:13:09Z</time>
      </trkpt>
      <trkpt lat="42.94032" lon="-0.69338">
        <ele>1472.877197</ele>
        <time>2012-08-20T12:13:28Z</time>
      </trkpt>
      <trkpt lat="42.94027" lon="-0.69331">
        <ele>1471.435059</ele>
        <time>2012-08-20T12:13:39Z</time>
      </trkpt>
      <trkpt lat="42.94026" lon="-0.6932">
        <ele>1469.031982</ele>
        <time>2012-08-20T12:13:51Z</time>
      </trkpt>
      <trkpt lat="42.94029" lon="-0.69316">
        <ele>1466.628418</ele>
        <time>2012-08-20T12:14:02Z</time>
      </trkpt>
      <trkpt lat="42.94031" lon="-0.69308">
        <ele>1464.705811</ele>
        <time>2012-08-20T12:14:16Z</time>
      </trkpt>
      <trkpt lat="42.94032" lon="-0.69299">
        <ele>1461.822021</ele>
        <time>2012-08-20T12:14:29Z</time>
      </trkpt>
      <trkpt lat="42.94036" lon="-0.69288">
        <ele>1459.418701</ele>
        <time>2012-08-20T12:14:43Z</time>
      </trkpt>
      <trkpt lat="42.94041" lon="-0.69278">
        <ele>1457.976807</ele>
        <time>2012-08-20T12:14:55Z</time>
      </trkpt>
      <trkpt lat="42.94053" lon="-0.69271">
        <ele>1455.092773</ele>
        <time>2012-08-20T12:15:12Z</time>
      </trkpt>
      <trkpt lat="42.94049" lon="-0.69266">
        <ele>1453.650879</ele>
        <time>2012-08-20T12:15:27Z</time>
      </trkpt>
      <trkpt lat="42.94051" lon="-0.69256">
        <ele>1450.766602</ele>
        <time>2012-08-20T12:15:40Z</time>
      </trkpt>
      <trkpt lat="42.9406" lon="-0.69254">
        <ele>1448.843994</ele>
        <time>2012-08-20T12:15:52Z</time>
      </trkpt>
      <trkpt lat="42.9407" lon="-0.69249">
        <ele>1446.440918</ele>
        <time>2012-08-20T12:16:06Z</time>
      </trkpt>
      <trkpt lat="42.94072" lon="-0.69246">
        <ele>1445.960205</ele>
        <time>2012-08-20T12:16:08Z</time>
      </trkpt>
      <trkpt lat="42.94074" lon="-0.69241">
        <ele>1444.518066</ele>
        <time>2012-08-20T12:16:18Z</time>
      </trkpt>
      <trkpt lat="42.94085" lon="-0.69243">
        <ele>1443.076172</ele>
        <time>2012-08-20T12:17:29Z</time>
      </trkpt>
      <trkpt lat="42.9408" lon="-0.69243">
        <ele>1444.998779</ele>
        <time>2012-08-20T12:18:24Z</time>
      </trkpt>
      <trkpt lat="42.94073" lon="-0.69231">
        <ele>1442.11499</ele>
        <time>2012-08-20T12:19:14Z</time>
      </trkpt>
      <trkpt lat="42.94087" lon="-0.69227">
        <ele>1438.750488</ele>
        <time>2012-08-20T12:19:31Z</time>
      </trkpt>
      <trkpt lat="42.941" lon="-0.69223">
        <ele>1435.866211</ele>
        <time>2012-08-20T12:19:45Z</time>
      </trkpt>
      <trkpt lat="42.94108" lon="-0.69216">
        <ele>1433.943604</ele>
        <time>2012-08-20T12:19:55Z</time>
      </trkpt>
      <trkpt lat="42.94118" lon="-0.69216">
        <ele>1433.943604</ele>
        <time>2012-08-20T12:20:06Z</time>
      </trkpt>
      <trkpt lat="42.94127" lon="-0.69213">
        <ele>1430.098389</ele>
        <time>2012-08-20T12:20:17Z</time>
      </trkpt>
      <trkpt lat="42.94131" lon="-0.69204">
        <ele>1427.695068</ele>
        <time>2012-08-20T12:20:27Z</time>
      </trkpt>
      <trkpt lat="42.94139" lon="-0.6919">
        <ele>1426.253174</ele>
        <time>2012-08-20T12:20:39Z</time>
      </trkpt>
      <trkpt lat="42.94148" lon="-0.69183">
        <ele>1423.369385</ele>
        <time>2012-08-20T12:20:51Z</time>
      </trkpt>
      <trkpt lat="42.94161" lon="-0.69175">
        <ele>1422.407959</ele>
        <time>2012-08-20T12:21:03Z</time>
      </trkpt>
      <trkpt lat="42.94163" lon="-0.69171">
        <ele>1420.485352</ele>
        <time>2012-08-20T12:21:15Z</time>
      </trkpt>
      <trkpt lat="42.94166" lon="-0.69158">
        <ele>1420.485352</ele>
        <time>2012-08-20T12:21:32Z</time>
      </trkpt>
      <trkpt lat="42.94163" lon="-0.69158">
        <ele>1416.639893</ele>
        <time>2012-08-20T12:21:52Z</time>
      </trkpt>
      <trkpt lat="42.94163" lon="-0.69157">
        <ele>1416.639893</ele>
        <time>2012-08-20T12:21:53Z</time>
      </trkpt>
      <trkpt lat="42.94166" lon="-0.6915">
        <ele>1413.275391</ele>
        <time>2012-08-20T12:22:13Z</time>
      </trkpt>
      <trkpt lat="42.94171" lon="-0.69138">
        <ele>1413.755859</ele>
        <time>2012-08-20T12:22:26Z</time>
      </trkpt>
      <trkpt lat="42.94174" lon="-0.69128">
        <ele>1411.352783</ele>
        <time>2012-08-20T12:22:32Z</time>
      </trkpt>
      <trkpt lat="42.94184" lon="-0.69111">
        <ele>1411.833496</ele>
        <time>2012-08-20T12:22:44Z</time>
      </trkpt>
      <trkpt lat="42.94188" lon="-0.69107">
        <ele>1411.352783</ele>
        <time>2012-08-20T12:22:47Z</time>
      </trkpt>
      <trkpt lat="42.9419" lon="-0.69099">
        <ele>1410.391357</ele>
        <time>2012-08-20T12:22:54Z</time>
      </trkpt>
      <trkpt lat="42.94195" lon="-0.69086">
        <ele>1408.949463</ele>
        <time>2012-08-20T12:23:07Z</time>
      </trkpt>
      <trkpt lat="42.94189" lon="-0.69076">
        <ele>1407.988281</ele>
        <time>2012-08-20T12:23:15Z</time>
      </trkpt>
      <trkpt lat="42.94176" lon="-0.6906">
        <ele>1405.584961</ele>
        <time>2012-08-20T12:23:28Z</time>
      </trkpt>
      <trkpt lat="42.94172" lon="-0.69046">
        <ele>1402.219971</ele>
        <time>2012-08-20T12:23:41Z</time>
      </trkpt>
      <trkpt lat="42.94172" lon="-0.69045">
        <ele>1402.219971</ele>
        <time>2012-08-20T12:23:42Z</time>
      </trkpt>
      <trkpt lat="42.9418" lon="-0.69029">
        <ele>1401.258789</ele>
        <time>2012-08-20T12:23:53Z</time>
      </trkpt>
      <trkpt lat="42.94181" lon="-0.69028">
        <ele>1400.778076</ele>
        <time>2012-08-20T12:23:54Z</time>
      </trkpt>
      <trkpt lat="42.94199" lon="-0.69003">
        <ele>1398.855469</ele>
        <time>2012-08-20T12:24:13Z</time>
      </trkpt>
      <trkpt lat="42.94201" lon="-0.68998">
        <ele>1397.894287</ele>
        <time>2012-08-20T12:24:17Z</time>
      </trkpt>
      <trkpt lat="42.94212" lon="-0.68977">
        <ele>1396.452393</ele>
        <time>2012-08-20T12:24:33Z</time>
      </trkpt>
      <trkpt lat="42.94214" lon="-0.68962">
        <ele>1394.529541</ele>
        <time>2012-08-20T12:24:44Z</time>
      </trkpt>
      <trkpt lat="42.9421" lon="-0.68951">
        <ele>1393.568359</ele>
        <time>2012-08-20T12:24:52Z</time>
      </trkpt>
      <trkpt lat="42.94218" lon="-0.6893">
        <ele>1391.165039</ele>
        <time>2012-08-20T12:25:06Z</time>
      </trkpt>
      <trkpt lat="42.94231" lon="-0.68909">
        <ele>1390.203857</ele>
        <time>2012-08-20T12:25:21Z</time>
      </trkpt>
      <trkpt lat="42.94235" lon="-0.68903">
        <ele>1389.723145</ele>
        <time>2012-08-20T12:25:32Z</time>
      </trkpt>
      <trkpt lat="42.94232" lon="-0.68895">
        <ele>1387.800293</ele>
        <time>2012-08-20T12:25:38Z</time>
      </trkpt>
      <trkpt lat="42.94206" lon="-0.68873">
        <ele>1384.916504</ele>
        <time>2012-08-20T12:25:55Z</time>
      </trkpt>
      <trkpt lat="42.94206" lon="-0.68856">
        <ele>1383.955078</ele>
        <time>2012-08-20T12:26:08Z</time>
      </trkpt>
      <trkpt lat="42.94223" lon="-0.68834">
        <ele>1381.071289</ele>
        <time>2012-08-20T12:26:23Z</time>
      </trkpt>
      <trkpt lat="42.94219" lon="-0.68813">
        <ele>1378.667969</ele>
        <time>2012-08-20T12:26:40Z</time>
      </trkpt>
      <trkpt lat="42.94216" lon="-0.68801">
        <ele>1375.783936</ele>
        <time>2012-08-20T12:26:51Z</time>
      </trkpt>
      <trkpt lat="42.94212" lon="-0.68786">
        <ele>1373.380859</ele>
        <time>2012-08-20T12:27:04Z</time>
      </trkpt>
      <trkpt lat="42.94208" lon="-0.68778">
        <ele>1371.938477</ele>
        <time>2012-08-20T12:27:13Z</time>
      </trkpt>
      <trkpt lat="42.94208" lon="-0.68773">
        <ele>1370.977295</ele>
        <time>2012-08-20T12:27:17Z</time>
      </trkpt>
      <trkpt lat="42.94225" lon="-0.68765">
        <ele>1369.054688</ele>
        <time>2012-08-20T12:27:30Z</time>
      </trkpt>
      <trkpt lat="42.94256" lon="-0.68751">
        <ele>1368.093262</ele>
        <time>2012-08-20T12:27:46Z</time>
      </trkpt>
      <trkpt lat="42.9428" lon="-0.68742">
        <ele>1367.612549</ele>
        <time>2012-08-20T12:27:56Z</time>
      </trkpt>
      <trkpt lat="42.94236" lon="-0.68757">
        <ele>1368.093262</ele>
        <time>2012-08-20T12:28:18Z</time>
      </trkpt>
      <trkpt lat="42.94258" lon="-0.68745">
        <ele>1367.13208</ele>
        <time>2012-08-20T12:29:10Z</time>
      </trkpt>
      <trkpt lat="42.94272" lon="-0.68737">
        <ele>1367.612549</ele>
        <time>2012-08-20T12:29:13Z</time>
      </trkpt>
      <trkpt lat="42.94253" lon="-0.68732">
        <ele>1364.248047</ele>
        <time>2012-08-20T12:29:23Z</time>
      </trkpt>
      <trkpt lat="42.94252" lon="-0.68726">
        <ele>1362.806152</ele>
        <time>2012-08-20T12:29:32Z</time>
      </trkpt>
      <trkpt lat="42.94252" lon="-0.6872">
        <ele>1360.883545</ele>
        <time>2012-08-20T12:29:42Z</time>
      </trkpt>
      <trkpt lat="42.94254" lon="-0.68717">
        <ele>1360.883545</ele>
        <time>2012-08-20T12:29:46Z</time>
      </trkpt>
      <trkpt lat="42.94254" lon="-0.68705">
        <ele>1358.480225</ele>
        <time>2012-08-20T12:29:58Z</time>
      </trkpt>
      <trkpt lat="42.94253" lon="-0.68698">
        <ele>1357.519043</ele>
        <time>2012-08-20T12:30:03Z</time>
      </trkpt>
      <trkpt lat="42.9426" lon="-0.68684">
        <ele>1356.557617</ele>
        <time>2012-08-20T12:30:12Z</time>
      </trkpt>
      <trkpt lat="42.9427" lon="-0.68652">
        <ele>1354.634766</ele>
        <time>2012-08-20T12:30:31Z</time>
      </trkpt>
      <trkpt lat="42.94274" lon="-0.68632">
        <ele>1353.192871</ele>
        <time>2012-08-20T12:30:44Z</time>
      </trkpt>
      <trkpt lat="42.94278" lon="-0.68624">
        <ele>1352.712158</ele>
        <time>2012-08-20T12:30:50Z</time>
      </trkpt>
      <trkpt lat="42.94286" lon="-0.68618">
        <ele>1352.231445</ele>
        <time>2012-08-20T12:30:55Z</time>
      </trkpt>
      <trkpt lat="42.94291" lon="-0.686">
        <ele>1350.789551</ele>
        <time>2012-08-20T12:31:07Z</time>
      </trkpt>
      <trkpt lat="42.94289" lon="-0.68597">
        <ele>1351.270264</ele>
        <time>2012-08-20T12:31:09Z</time>
      </trkpt>
      <trkpt lat="42.94293" lon="-0.68585">
        <ele>1349.828369</ele>
        <time>2012-08-20T12:31:17Z</time>
      </trkpt>
      <trkpt lat="42.94292" lon="-0.68573">
        <ele>1349.828369</ele>
        <time>2012-08-20T12:31:30Z</time>
      </trkpt>
      <trkpt lat="42.9429" lon="-0.68557">
        <ele>1350.309082</ele>
        <time>2012-08-20T12:31:40Z</time>
      </trkpt>
      <trkpt lat="42.94298" lon="-0.68551">
        <ele>1350.309082</ele>
        <time>2012-08-20T12:31:45Z</time>
      </trkpt>
      <trkpt lat="42.94294" lon="-0.68535">
        <ele>1350.789551</ele>
        <time>2012-08-20T12:31:56Z</time>
      </trkpt>
      <trkpt lat="42.94297" lon="-0.6853">
        <ele>1350.789551</ele>
        <time>2012-08-20T12:31:59Z</time>
      </trkpt>
      <trkpt lat="42.94301" lon="-0.68514">
        <ele>1350.789551</ele>
        <time>2012-08-20T12:32:12Z</time>
      </trkpt>
      <trkpt lat="42.94294" lon="-0.68504">
        <ele>1350.309082</ele>
        <time>2012-08-20T12:32:20Z</time>
      </trkpt>
      <trkpt lat="42.94304" lon="-0.68495">
        <ele>1349.828369</ele>
        <time>2012-08-20T12:32:26Z</time>
      </trkpt>
      <trkpt lat="42.94309" lon="-0.68479">
        <ele>1348.866943</ele>
        <time>2012-08-20T12:32:36Z</time>
      </trkpt>
      <trkpt lat="42.94299" lon="-0.68466">
        <ele>1346.944336</ele>
        <time>2012-08-20T12:32:47Z</time>
      </trkpt>
      <trkpt lat="42.94295" lon="-0.68463">
        <ele>1345.983154</ele>
        <time>2012-08-20T12:32:51Z</time>
      </trkpt>
      <trkpt lat="42.94292" lon="-0.68455">
        <ele>1345.502441</ele>
        <time>2012-08-20T12:33:00Z</time>
      </trkpt>
      <trkpt lat="42.94284" lon="-0.68443">
        <ele>1344.060547</ele>
        <time>2012-08-20T12:33:12Z</time>
      </trkpt>
      <trkpt lat="42.94287" lon="-0.68431">
        <ele>1341.176514</ele>
        <time>2012-08-20T12:33:29Z</time>
      </trkpt>
      <trkpt lat="42.9429" lon="-0.68427">
        <ele>1339.253662</ele>
        <time>2012-08-20T12:33:34Z</time>
      </trkpt>
      <trkpt lat="42.94293" lon="-0.68417">
        <ele>1338.29248</ele>
        <time>2012-08-20T12:33:47Z</time>
      </trkpt>
      <trkpt lat="42.94297" lon="-0.6841">
        <ele>1335.88916</ele>
        <time>2012-08-20T12:33:57Z</time>
      </trkpt>
      <trkpt lat="42.94291" lon="-0.68397">
        <ele>1333.48584</ele>
        <time>2012-08-20T12:34:15Z</time>
      </trkpt>
      <trkpt lat="42.9429" lon="-0.68387">
        <ele>1331.563232</ele>
        <time>2012-08-20T12:34:30Z</time>
      </trkpt>
      <trkpt lat="42.94283" lon="-0.68378">
        <ele>1330.602051</ele>
        <time>2012-08-20T12:34:41Z</time>
      </trkpt>
      <trkpt lat="42.94282" lon="-0.68367">
        <ele>1327.237549</ele>
        <time>2012-08-20T12:34:59Z</time>
      </trkpt>
      <trkpt lat="42.94277" lon="-0.6836">
        <ele>1324.353516</ele>
        <time>2012-08-20T12:35:16Z</time>
      </trkpt>
      <trkpt lat="42.94276" lon="-0.68357">
        <ele>1323.872559</ele>
        <time>2012-08-20T12:35:23Z</time>
      </trkpt>
      <trkpt lat="42.94269" lon="-0.68348">
        <ele>1320.027344</ele>
        <time>2012-08-20T12:35:40Z</time>
      </trkpt>
      <trkpt lat="42.94269" lon="-0.68347">
        <ele>1319.066162</ele>
        <time>2012-08-20T12:35:49Z</time>
      </trkpt>
      <trkpt lat="42.94264" lon="-0.6834">
        <ele>1317.143555</ele>
        <time>2012-08-20T12:36:08Z</time>
      </trkpt>
      <trkpt lat="42.94265" lon="-0.68333">
        <ele>1314.740234</ele>
        <time>2012-08-20T12:36:19Z</time>
      </trkpt>
      <trkpt lat="42.9428" lon="-0.68329">
        <ele>1312.817627</ele>
        <time>2012-08-20T12:36:28Z</time>
      </trkpt>
      <trkpt lat="42.94286" lon="-0.68319">
        <ele>1309.933594</ele>
        <time>2012-08-20T12:36:47Z</time>
      </trkpt>
      <trkpt lat="42.94287" lon="-0.68312">
        <ele>1307.049561</ele>
        <time>2012-08-20T12:37:00Z</time>
      </trkpt>
      <trkpt lat="42.94287" lon="-0.68299">
        <ele>1304.64624</ele>
        <time>2012-08-20T12:37:12Z</time>
      </trkpt>
      <trkpt lat="42.94279" lon="-0.68291">
        <ele>1302.24292</ele>
        <time>2012-08-20T12:37:22Z</time>
      </trkpt>
      <trkpt lat="42.94271" lon="-0.68277">
        <ele>1299.359131</ele>
        <time>2012-08-20T12:37:37Z</time>
      </trkpt>
      <trkpt lat="42.94272" lon="-0.68268">
        <ele>1295.994629</ele>
        <time>2012-08-20T12:37:53Z</time>
      </trkpt>
      <trkpt lat="42.94272" lon="-0.68267">
        <ele>1295.994629</ele>
        <time>2012-08-20T12:37:54Z</time>
      </trkpt>
      <trkpt lat="42.94276" lon="-0.68258">
        <ele>1292.630127</ele>
        <time>2012-08-20T12:38:06Z</time>
      </trkpt>
      <trkpt lat="42.94272" lon="-0.6825">
        <ele>1290.707031</ele>
        <time>2012-08-20T12:38:19Z</time>
      </trkpt>
      <trkpt lat="42.9427" lon="-0.68244">
        <ele>1287.342529</ele>
        <time>2012-08-20T12:38:28Z</time>
      </trkpt>
      <trkpt lat="42.94267" lon="-0.68231">
        <ele>1286.381348</ele>
        <time>2012-08-20T12:38:46Z</time>
      </trkpt>
      <trkpt lat="42.9426" lon="-0.68216">
        <ele>1283.978027</ele>
        <time>2012-08-20T12:38:58Z</time>
      </trkpt>
      <trkpt lat="42.94258" lon="-0.68205">
        <ele>1281.574707</ele>
        <time>2012-08-20T12:39:13Z</time>
      </trkpt>
      <trkpt lat="42.94257" lon="-0.68206">
        <ele>1281.574707</ele>
        <time>2012-08-20T12:39:45Z</time>
      </trkpt>
      <trkpt lat="42.9426" lon="-0.68197">
        <ele>1278.210205</ele>
        <time>2012-08-20T12:40:13Z</time>
      </trkpt>
      <trkpt lat="42.94259" lon="-0.6819">
        <ele>1276.287598</ele>
        <time>2012-08-20T12:40:23Z</time>
      </trkpt>
      <trkpt lat="42.94261" lon="-0.68182">
        <ele>1274.845459</ele>
        <time>2012-08-20T12:40:39Z</time>
      </trkpt>
      <trkpt lat="42.94265" lon="-0.68174">
        <ele>1272.442139</ele>
        <time>2012-08-20T12:41:04Z</time>
      </trkpt>
      <trkpt lat="42.94267" lon="-0.68168">
        <ele>1269.077637</ele>
        <time>2012-08-20T12:41:19Z</time>
      </trkpt>
      <trkpt lat="42.94259" lon="-0.68172">
        <ele>1266.193604</ele>
        <time>2012-08-20T12:41:38Z</time>
      </trkpt>
      <trkpt lat="42.94255" lon="-0.68165">
        <ele>1264.751709</ele>
        <time>2012-08-20T12:42:18Z</time>
      </trkpt>
      <trkpt lat="42.94251" lon="-0.68171">
        <ele>1262.348389</ele>
        <time>2012-08-20T12:42:52Z</time>
      </trkpt>
      <trkpt lat="42.94246" lon="-0.68172">
        <ele>1259.464355</ele>
        <time>2012-08-20T12:43:06Z</time>
      </trkpt>
      <trkpt lat="42.94247" lon="-0.68168">
        <ele>1257.541748</ele>
        <time>2012-08-20T12:43:18Z</time>
      </trkpt>
      <trkpt lat="42.94251" lon="-0.68164">
        <ele>1254.177246</ele>
        <time>2012-08-20T12:43:30Z</time>
      </trkpt>
      <trkpt lat="42.94253" lon="-0.68158">
        <ele>1251.773926</ele>
        <time>2012-08-20T12:43:41Z</time>
      </trkpt>
      <trkpt lat="42.94249" lon="-0.6816">
        <ele>1248.889893</ele>
        <time>2012-08-20T12:43:51Z</time>
      </trkpt>
      <trkpt lat="42.94246" lon="-0.68154">
        <ele>1246.006104</ele>
        <time>2012-08-20T12:44:16Z</time>
      </trkpt>
      <trkpt lat="42.94253" lon="-0.6815">
        <ele>1241.679932</ele>
        <time>2012-08-20T12:44:43Z</time>
      </trkpt>
      <trkpt lat="42.94254" lon="-0.68141">
        <ele>1239.757324</ele>
        <time>2012-08-20T12:44:57Z</time>
      </trkpt>
      <trkpt lat="42.94259" lon="-0.68137">
        <ele>1236.392822</ele>
        <time>2012-08-20T12:45:11Z</time>
      </trkpt>
      <trkpt lat="42.94262" lon="-0.6813">
        <ele>1232.547607</ele>
        <time>2012-08-20T12:45:23Z</time>
      </trkpt>
      <trkpt lat="42.94269" lon="-0.68126">
        <ele>1229.663574</ele>
        <time>2012-08-20T12:45:32Z</time>
      </trkpt>
      <trkpt lat="42.94262" lon="-0.68116">
        <ele>1226.779541</ele>
        <time>2012-08-20T12:46:07Z</time>
      </trkpt>
      <trkpt lat="42.94253" lon="-0.68099">
        <ele>1225.337402</ele>
        <time>2012-08-20T12:46:24Z</time>
      </trkpt>
      <trkpt lat="42.94261" lon="-0.68094">
        <ele>1224.376221</ele>
        <time>2012-08-20T12:46:40Z</time>
      </trkpt>
      <trkpt lat="42.94263" lon="-0.68089">
        <ele>1220.531006</ele>
        <time>2012-08-20T12:46:59Z</time>
      </trkpt>
      <trkpt lat="42.94255" lon="-0.68084">
        <ele>1218.608398</ele>
        <time>2012-08-20T12:47:12Z</time>
      </trkpt>
      <trkpt lat="42.94252" lon="-0.68076">
        <ele>1216.205078</ele>
        <time>2012-08-20T12:47:28Z</time>
      </trkpt>
      <trkpt lat="42.94245" lon="-0.68072">
        <ele>1214.282471</ele>
        <time>2012-08-20T12:47:44Z</time>
      </trkpt>
      <trkpt lat="42.94239" lon="-0.68072">
        <ele>1212.840576</ele>
        <time>2012-08-20T12:48:06Z</time>
      </trkpt>
      <trkpt lat="42.94242" lon="-0.68069">
        <ele>1208.995117</ele>
        <time>2012-08-20T12:48:18Z</time>
      </trkpt>
      <trkpt lat="42.94248" lon="-0.68062">
        <ele>1207.07251</ele>
        <time>2012-08-20T12:48:34Z</time>
      </trkpt>
      <trkpt lat="42.94263" lon="-0.68056">
        <ele>1204.188721</ele>
        <time>2012-08-20T12:48:53Z</time>
      </trkpt>
      <trkpt lat="42.94273" lon="-0.68063">
        <ele>1202.265869</ele>
        <time>2012-08-20T12:49:12Z</time>
      </trkpt>
      <trkpt lat="42.94277" lon="-0.68074">
        <ele>1200.823975</ele>
        <time>2012-08-20T12:49:24Z</time>
      </trkpt>
      <trkpt lat="42.94286" lon="-0.68074">
        <ele>1197.459473</ele>
        <time>2012-08-20T12:49:42Z</time>
      </trkpt>
      <trkpt lat="42.94285" lon="-0.68064">
        <ele>1196.017578</ele>
        <time>2012-08-20T12:49:55Z</time>
      </trkpt>
      <trkpt lat="42.9429" lon="-0.68068">
        <ele>1192.652832</ele>
        <time>2012-08-20T12:50:11Z</time>
      </trkpt>
      <trkpt lat="42.94301" lon="-0.68076">
        <ele>1189.768799</ele>
        <time>2012-08-20T12:50:25Z</time>
      </trkpt>
      <trkpt lat="42.94303" lon="-0.68083">
        <ele>1186.884766</ele>
        <time>2012-08-20T12:50:38Z</time>
      </trkpt>
      <trkpt lat="42.94305" lon="-0.68069">
        <ele>1183.520264</ele>
        <time>2012-08-20T12:51:03Z</time>
      </trkpt>
      <trkpt lat="42.94315" lon="-0.68077">
        <ele>1181.117188</ele>
        <time>2012-08-20T12:51:13Z</time>
      </trkpt>
      <trkpt lat="42.94314" lon="-0.68081">
        <ele>1177.752197</ele>
        <time>2012-08-20T12:51:29Z</time>
      </trkpt>
      <trkpt lat="42.94324" lon="-0.68078">
        <ele>1174.387695</ele>
        <time>2012-08-20T12:51:45Z</time>
      </trkpt>
      <trkpt lat="42.94334" lon="-0.6808">
        <ele>1171.503662</ele>
        <time>2012-08-20T12:52:02Z</time>
      </trkpt>
      <trkpt lat="42.9435" lon="-0.68069">
        <ele>1168.13916</ele>
        <time>2012-08-20T12:52:26Z</time>
      </trkpt>
      <trkpt lat="42.94345" lon="-0.68063">
        <ele>1165.255371</ele>
        <time>2012-08-20T12:52:36Z</time>
      </trkpt>
      <trkpt lat="42.94345" lon="-0.68055">
        <ele>1162.371094</ele>
        <time>2012-08-20T12:52:48Z</time>
      </trkpt>
      <trkpt lat="42.9434" lon="-0.68047">
        <ele>1159.487305</ele>
        <time>2012-08-20T12:53:03Z</time>
      </trkpt>
      <trkpt lat="42.94334" lon="-0.68037">
        <ele>1157.564697</ele>
        <time>2012-08-20T12:53:19Z</time>
      </trkpt>
      <trkpt lat="42.94328" lon="-0.68028">
        <ele>1154.680664</ele>
        <time>2012-08-20T12:53:37Z</time>
      </trkpt>
      <trkpt lat="42.94324" lon="-0.68029">
        <ele>1152.277344</ele>
        <time>2012-08-20T12:54:00Z</time>
      </trkpt>
      <trkpt lat="42.94327" lon="-0.68025">
        <ele>1148.912842</ele>
        <time>2012-08-20T12:55:56Z</time>
      </trkpt>
      <trkpt lat="42.94329" lon="-0.68019">
        <ele>1146.98999</ele>
        <time>2012-08-20T12:56:12Z</time>
      </trkpt>
      <trkpt lat="42.94335" lon="-0.68017">
        <ele>1144.58667</ele>
        <time>2012-08-20T12:56:31Z</time>
      </trkpt>
      <trkpt lat="42.94333" lon="-0.68013">
        <ele>1141.702881</ele>
        <time>2012-08-20T12:56:46Z</time>
      </trkpt>
      <trkpt lat="42.94329" lon="-0.68007">
        <ele>1140.260986</ele>
        <time>2012-08-20T12:57:00Z</time>
      </trkpt>
      <trkpt lat="42.94322" lon="-0.68001">
        <ele>1136.415771</ele>
        <time>2012-08-20T12:57:17Z</time>
      </trkpt>
      <trkpt lat="42.94314" lon="-0.67998">
        <ele>1134.012451</ele>
        <time>2012-08-20T12:57:37Z</time>
      </trkpt>
      <trkpt lat="42.94311" lon="-0.67994">
        <ele>1132.570557</ele>
        <time>2012-08-20T12:57:54Z</time>
      </trkpt>
      <trkpt lat="42.94305" lon="-0.6799">
        <ele>1130.647705</ele>
        <time>2012-08-20T12:58:07Z</time>
      </trkpt>
      <trkpt lat="42.94299" lon="-0.67988">
        <ele>1127.763672</ele>
        <time>2012-08-20T12:58:23Z</time>
      </trkpt>
      <trkpt lat="42.94294" lon="-0.67986">
        <ele>1125.841064</ele>
        <time>2012-08-20T12:58:37Z</time>
      </trkpt>
      <trkpt lat="42.94292" lon="-0.67983">
        <ele>1123.437988</ele>
        <time>2012-08-20T12:58:54Z</time>
      </trkpt>
      <trkpt lat="42.94284" lon="-0.67975">
        <ele>1120.553955</ele>
        <time>2012-08-20T12:59:11Z</time>
      </trkpt>
      <trkpt lat="42.94278" lon="-0.67967">
        <ele>1119.592773</ele>
        <time>2012-08-20T12:59:24Z</time>
      </trkpt>
      <trkpt lat="42.94274" lon="-0.67952">
        <ele>1118.150635</ele>
        <time>2012-08-20T12:59:41Z</time>
      </trkpt>
      <trkpt lat="42.9427" lon="-0.67948">
        <ele>1119.592773</ele>
        <time>2012-08-20T13:00:02Z</time>
      </trkpt>
      <trkpt lat="42.94264" lon="-0.67939">
        <ele>1119.112061</ele>
        <time>2012-08-20T13:00:11Z</time>
      </trkpt>
      <trkpt lat="42.94246" lon="-0.67914">
        <ele>1119.112061</ele>
        <time>2012-08-20T13:00:35Z</time>
      </trkpt>
      <trkpt lat="42.94223" lon="-0.67905">
        <ele>1117.189453</ele>
        <time>2012-08-20T13:00:56Z</time>
      </trkpt>
      <trkpt lat="42.94202" lon="-0.67896">
        <ele>1116.228027</ele>
        <time>2012-08-20T13:01:16Z</time>
      </trkpt>
      <trkpt lat="42.94195" lon="-0.67889">
        <ele>1115.747314</ele>
        <time>2012-08-20T13:01:24Z</time>
      </trkpt>
      <trkpt lat="42.9418" lon="-0.67862">
        <ele>1113.824463</ele>
        <time>2012-08-20T13:01:45Z</time>
      </trkpt>
      <trkpt lat="42.94158" lon="-0.67846">
        <ele>1113.343994</ele>
        <time>2012-08-20T13:02:05Z</time>
      </trkpt>
      <trkpt lat="42.94136" lon="-0.6783">
        <ele>1111.9021</ele>
        <time>2012-08-20T13:02:26Z</time>
      </trkpt>
      <trkpt lat="42.94116" lon="-0.67808">
        <ele>1110.459961</ele>
        <time>2012-08-20T13:02:47Z</time>
      </trkpt>
      <trkpt lat="42.94101" lon="-0.67787">
        <ele>1109.018066</ele>
        <time>2012-08-20T13:03:05Z</time>
      </trkpt>
      <trkpt lat="42.94086" lon="-0.67767">
        <ele>1109.498779</ele>
        <time>2012-08-20T13:03:24Z</time>
      </trkpt>
      <trkpt lat="42.94078" lon="-0.67756">
        <ele>1107.576172</ele>
        <time>2012-08-20T13:03:33Z</time>
      </trkpt>
      <trkpt lat="42.94076" lon="-0.67755">
        <ele>1107.576172</ele>
        <time>2012-08-20T13:03:35Z</time>
      </trkpt>
      <trkpt lat="42.94073" lon="-0.67756">
        <ele>1107.576172</ele>
        <time>2012-08-20T13:03:38Z</time>
      </trkpt>
      <trkpt lat="42.94055" lon="-0.67749">
        <ele>1106.614746</ele>
        <time>2012-08-20T13:03:57Z</time>
      </trkpt>
      <trkpt lat="42.94051" lon="-0.6775">
        <ele>1106.134033</ele>
        <time>2012-08-20T13:04:04Z</time>
      </trkpt>
      <trkpt lat="42.9405" lon="-0.67754">
        <ele>1106.134033</ele>
        <time>2012-08-20T13:04:07Z</time>
      </trkpt>
      <trkpt lat="42.94054" lon="-0.67757">
        <ele>1105.172852</ele>
        <time>2012-08-20T13:04:21Z</time>
      </trkpt>
      <trkpt lat="42.94054" lon="-0.67756">
        <ele>1105.172852</ele>
        <time>2012-08-20T13:04:39Z</time>
      </trkpt>
      <trkpt lat="42.94052" lon="-0.67756">
        <ele>1104.692139</ele>
        <time>2012-08-20T13:04:53Z</time>
      </trkpt>
      <trkpt lat="42.94051" lon="-0.67756">
        <ele>1104.692139</ele>
        <time>2012-08-20T13:05:15Z</time>
      </trkpt>
    </trkseg>
  </trk>
</gpx>